Zarling — WDD7883 — position and weather

sailwx.info

Track history (hours):
 
Tides and Currents Weather Stations Pressure Air Temp Water Temp Dewpoint Dewpoint Depression Visibility Wind Speed Wind Dir Waves Ship Positions

Zarling

Owner: Clean Rivers Co-op, Portland, OR. More information available from US FCC via Universal Licensing System.

Last reported at 2015-Aug-05 05:33 UTC. Time now 2015-Aug-05 06:29 UTC.
Position N 46°05' W 122°56'.

Length 12 m.

Type: Pollution control. MMSI: 3699126.

Date/timePositionNaut miles runAvg speedWind from/ knotsBaromVisibWave heightAir tempDewpointWater temp
2015-Aug-05 05:33N 46°05' W 122°56'294127.9
2015-Aug-05 05:32N 45°37' W 122°48'5615436.8
2015-Aug-05 05:32N 46°11' W 123°51'3939.5
2015-Aug-05 04:33N 46°05' W 122°56'294486.9
2015-Aug-05 04:32N 45°37' W 122°48'5620067.9
2015-Aug-05 04:32N 46°11' W 123°51'20237.7
2015-Aug-05 04:27N 46°12' W 123°23'2022.4
2015-Aug-05 03:33N 46°05' W 122°56'393609.0
2015-Aug-05 03:32N 46°11' W 123°51'561201.7
2015-Aug-05 03:29N 45°37' W 122°48'0 0.0
2015-Aug-05 02:32N 45°37' W 122°48'5618244.7
2015-Aug-05 02:32N 46°11' W 123°51'39279.3
2015-Aug-05 02:24N 46°05' W 122°56'3945.5
2015-Aug-05 01:32N 46°11' W 123°51'39430.4
2015-Aug-05 01:27N 46°05' W 122°56'294691.8
2015-Aug-05 01:26N 45°37' W 122°48'431225.0
2015-Aug-05 01:24N 46°12' W 123°23'2023.7
2015-Aug-05 00:33N 46°05' W 122°56'294299.9
2015-Aug-05 00:32N 45°37' W 122°48'5633446.5
2015-Aug-05 00:32N 46°11' W 123°51'3939.5
2015-Aug-04 23:33N 46°05' W 122°56'293970.0
2015-Aug-04 23:32N 45°37' W 122°48'5633448.7
2015-Aug-04 23:32N 46°11' W 123°51'3939.4
2015-Aug-04 22:33N 46°05' W 122°56'394139.8
2015-Aug-04 22:32N 46°11' W 123°51'56380.8
2015-Aug-04 22:23N 45°37' W 122°48'0 0.0
2015-Aug-04 21:32N 45°37' W 122°48'5616724.4
2015-Aug-04 21:32N 46°11' W 123°51'39429.1
2015-Aug-04 21:27N 46°05' W 122°56'2931.7
2015-Aug-04 20:32N 45°37' W 122°48'5622299.1
2015-Aug-04 20:32N 46°11' W 123°51'391737.7
2015-Aug-04 20:31N 46°05' W 122°56'2929.4
2015-Aug-04 19:32N 45°37' W 122°48'291186.4
2015-Aug-04 19:31N 46°05' W 122°56'391315.4
2015-Aug-04 19:29N 46°11' W 123°51'0 0.0
2015-Aug-04 18:32N 46°11' W 123°51'391804.5
2015-Aug-04 18:31N 46°05' W 122°56'29379.5
2015-Aug-04 18:26N 45°37' W 122°48'4348.2
2015-Aug-04 17:33N 46°12' W 123°23'434677.3
2015-Aug-04 17:32N 45°37' W 122°48'5616724.4
2015-Aug-04 17:32N 46°11' W 123°51'39322.8
2015-Aug-04 17:25N 46°05' W 122°56'3944.5
2015-Aug-04 16:32N 46°11' W 123°51'56284.7
2015-Aug-04 16:20N 45°37' W 122°48'29127.4
2015-Aug-04 16:07N 46°05' W 122°56'2949.8
2015-Aug-04 15:32N 45°37' W 122°48'5625084.9
2015-Aug-04 15:32N 46°11' W 123°51'391695.8
2015-Aug-04 15:31N 46°05' W 122°56'20318.6
2015-Aug-04 15:27N 46°12' W 123°23'2021.4
2015-Aug-04 14:32N 46°11' W 123°51'39543.4
2015-Aug-04 14:28N 46°05' W 122°56'29386.6
2015-Aug-04 14:24N 45°37' W 122°48'431035.9
2015-Aug-04 14:21N 46°12' W 123°23'2024.1
2015-Aug-04 13:32N 46°11' W 123°51'391716.5
2015-Aug-04 13:31N 46°05' W 122°56'291200.2
2015-Aug-04 13:30N 45°37' W 122°48'431035.9
2015-Aug-04 13:27N 46°12' W 123°23'2021.5
2015-Aug-04 12:32N 46°11' W 123°51'391675.6
2015-Aug-04 12:31N 46°05' W 122°56'291159.8
2015-Aug-04 12:29N 45°37' W 122°48'43223.4
2015-Aug-04 12:18N 46°12' W 123°23'2025.7
2015-Aug-04 11:32N 46°11' W 123°51'391781.7
2015-Aug-04 11:31N 46°05' W 122°56'29385.1
2015-Aug-04 11:27N 45°37' W 122°48'5661.7
2015-Aug-04 10:32N 46°11' W 123°51'39319.2
2015-Aug-04 10:25N 46°05' W 122°56'3944.6
2015-Aug-04 09:32N 46°11' W 123°51'391695.8
2015-Aug-04 09:31N 46°05' W 122°56'29104.8
2015-Aug-04 09:15N 45°37' W 122°48'5679.2
2015-Aug-04 08:32N 46°11' W 123°51'391737.7
2015-Aug-04 08:31N 46°05' W 122°56'29232.0
2015-Aug-04 08:24N 45°37' W 122°48'43177.2
2015-Aug-04 08:09N 46°12' W 123°23'2032.0
2015-Aug-04 07:32N 46°11' W 123°51'39317.7
2015-Aug-04 07:25N 46°05' W 122°56'29392.5
2015-Aug-04 07:21N 45°37' W 122°48'0 0.0
2015-Aug-04 06:33N 45°37' W 122°48'5618243.6
2015-Aug-04 06:32N 46°11' W 123°51'391737.6
2015-Aug-04 06:31N 46°05' W 122°56'2021.1
2015-Aug-04 05:33N 46°12' W 123°23'201851.7
2015-Aug-04 05:32N 46°11' W 123°51'391655.9
2015-Aug-04 05:31N 46°05' W 122°56'29389.5
2015-Aug-04 05:27N 45°37' W 122°48'2930.9
2015-Aug-04 04:31N 46°05' W 122°56'391451.1
2015-Aug-04 04:29N 46°11' W 123°51'561201.7
2015-Aug-04 04:27N 45°37' W 122°48'43109.2
2015-Aug-04 04:03N 46°12' W 123°23'0 0.0
2015-Aug-04 03:33N 46°12' W 123°23'435936.5
2015-Aug-04 03:33N 45°37' W 122°48'5620069.2
2015-Aug-04 03:32N 46°11' W 123°51'391581.5
2015-Aug-04 03:31N 46°05' W 122°56'2929.5
2015-Aug-04 02:33N 45°37' W 122°48'5613378.6
2015-Aug-04 02:32N 46°11' W 123°51'391636.6
2015-Aug-04 02:31N 46°05' W 122°56'2929.5
2015-Aug-04 01:33N 45°37' W 122°48'5613379.5
2015-Aug-04 01:32N 46°11' W 123°51'39226.7
2015-Aug-04 01:22N 46°05' W 122°56'2076.3
2015-Aug-04 01:06N 46°12' W 123°23'2034.9
2015-Aug-04 00:32N 46°11' W 123°51'39533.2
2015-Aug-04 00:28N 46°05' W 122°56'29398.4
2015-Aug-04 00:24N 45°37' W 122°48'5665.3
2015-Aug-03 23:32N 46°11' W 123°51'561194.6
2015-Aug-03 23:30N 45°37' W 122°48'0 0.0
2015-Aug-03 22:33N 45°37' W 122°48'5622299.1
2015-Aug-03 22:32N 46°11' W 123°51'391563.9
2015-Aug-03 22:31N 46°05' W 122°56'2055.7
2015-Aug-03 22:09N 46°12' W 123°23'4370.7
2015-Aug-03 21:33N 45°37' W 122°48'5618244.7
2015-Aug-03 21:32N 46°11' W 123°51'391599.5
2015-Aug-03 21:31N 46°05' W 122°56'3940.1
2015-Aug-03 20:32N 46°11' W 123°51'561194.6
2015-Aug-03 20:30N 45°37' W 122°48'29366.0
2015-Aug-03 20:25N 46°05' W 122°56'2055.7
2015-Aug-03 20:03N 46°12' W 123°23'2038.3
2015-Aug-03 19:32N 46°11' W 123°51'561194.6
2015-Aug-03 19:30N 45°37' W 122°48'29367.3
2015-Aug-03 19:25N 46°05' W 122°56'3944.8
2015-Aug-03 18:33N 46°11' W 123°51'391497.3
2015-Aug-03 18:31N 46°05' W 122°56'291323.3
2015-Aug-03 18:30N 45°37' W 122°48'5658.5
2015-Aug-03 17:32N 46°11' W 123°51'391599.5
2015-Aug-03 17:31N 46°05' W 122°56'291290.0
2015-Aug-03 17:30N 45°37' W 122°48'43299.1
2015-Aug-03 17:21N 46°12' W 123°23'2024.1
2015-Aug-03 16:32N 46°11' W 123°51'39314.2
2015-Aug-03 16:25N 46°05' W 122°56'291323.3
2015-Aug-03 16:24N 45°37' W 122°48'5665.4
2015-Aug-03 15:33N 46°11' W 123°51'561160.0
2015-Aug-03 15:30N 45°37' W 122°48'29363.4
2015-Aug-03 15:25N 46°05' W 122°56'20123.0
2015-Aug-03 15:15N 46°12' W 123°23'2027.6
2015-Aug-03 14:33N 46°11' W 123°51'39513.7
2015-Aug-03 14:28N 46°05' W 122°56'291433.6
2015-Aug-03 14:27N 45°37' W 122°48'43448.7
2015-Aug-03 14:21N 46°12' W 123°23'2024.2
2015-Aug-03 13:33N 46°11' W 123°51'201099.5
2015-Aug-03 13:31N 46°12' W 123°23'202364.1
2015-Aug-03 13:31N 46°05' W 122°56'291414.0
2015-Aug-03 13:30N 45°37' W 122°48'5658.4
2015-Aug-03 12:32N 46°11' W 123°51'391529.9
2015-Aug-03 12:31N 46°05' W 122°56'20224.1
2015-Aug-03 12:26N 46°12' W 123°23'43238.6
2015-Aug-03 12:15N 45°37' W 122°48'5679.4
2015-Aug-03 11:33N 46°11' W 123°51'391529.9
2015-Aug-03 11:31N 46°05' W 122°56'291340.5
2015-Aug-03 11:30N 45°37' W 122°48'43101.9
2015-Aug-03 11:05N 46°12' W 123°23'4381.0
2015-Aug-03 10:33N 45°37' W 122°48'5615436.8
2015-Aug-03 10:33N 46°11' W 123°51'391513.5
2015-Aug-03 10:31N 46°05' W 122°56'20222.8
2015-Aug-03 10:25N 46°12' W 123°23'2022.2
2015-Aug-03 09:33N 46°11' W 123°51'20287.2
2015-Aug-03 09:28N 46°12' W 123°23'20153.0
2015-Aug-03 09:20N 46°05' W 122°56'3949.0
2015-Aug-03 08:33N 46°11' W 123°51'56378.6
2015-Aug-03 08:24N 45°37' W 122°48'5665.3
2015-Aug-03 07:33N 46°11' W 123°51'5656.0
2015-Aug-03 06:33N 45°37' W 122°48'5618243.6
2015-Aug-03 06:33N 46°11' W 123°51'201066.1
2015-Aug-03 06:31N 46°12' W 123°23'20352.3
2015-Aug-03 06:28N 46°05' W 122°56'2931.1
2015-Aug-03 05:33N 45°37' W 122°48'5622297.7
2015-Aug-03 05:33N 46°11' W 123°51'39511.8
2015-Aug-03 05:28N 46°05' W 122°56'2931.1
2015-Aug-03 04:33N 45°37' W 122°48'5615436.8
2015-Aug-03 04:33N 46°11' W 123°51'39508.1
2015-Aug-03 04:28N 46°05' W 122°56'20488.6
2015-Aug-03 04:25N 46°12' W 123°23'2022.2
2015-Aug-03 03:33N 46°11' W 123°51'39500.9
2015-Aug-03 03:28N 46°05' W 122°56'29411.2
2015-Aug-03 03:24N 45°37' W 122°48'5665.3
2015-Aug-03 02:33N 46°11' W 123°51'391513.5
2015-Aug-03 02:31N 46°05' W 122°56'29409.6
2015-Aug-03 02:27N 45°37' W 122°48'43350.0
2015-Aug-03 02:19N 46°12' W 123°23'2025.0
2015-Aug-03 01:33N 46°11' W 123°51'20283.7
2015-Aug-03 01:28N 46°12' W 123°23'202364.1
2015-Aug-03 01:28N 46°05' W 122°56'2989.8
2015-Aug-03 01:09N 45°37' W 122°48'5692.4
2015-Aug-03 00:33N 46°11' W 123°51'391466.2
2015-Aug-03 00:31N 46°05' W 122°56'20488.6
2015-Aug-03 00:29N 46°12' W 123°23'43333.3
2015-Aug-03 00:21N 45°37' W 122°48'0 0.0
2015-Aug-02 23:33N 45°37' W 122°48'5640138.4
2015-Aug-02 23:33N 46°11' W 123°51'391379.9
2015-Aug-02 23:31N 46°05' W 122°56'20106.4
2015-Aug-02 23:20N 46°12' W 123°23'2025.0
2015-Aug-02 22:33N 46°11' W 123°51'39506.3
2015-Aug-02 22:28N 46°05' W 122°56'2084.4
2015-Aug-02 22:14N 46°12' W 123°23'431607.8
2015-Aug-02 22:12N 45°37' W 122°48'5685.1
2015-Aug-02 21:33N 46°11' W 123°51'391436.2
2015-Aug-02 21:31N 46°05' W 122°56'291517.9
2015-Aug-02 21:30N 45°37' W 122°48'5658.5
2015-Aug-02 20:33N 46°11' W 123°51'201019.8
2015-Aug-02 20:32N 46°12' W 123°23'20345.7
2015-Aug-02 20:28N 46°05' W 122°56'29170.3
2015-Aug-02 20:18N 45°37' W 122°48'5673.9
2015-Aug-02 19:33N 46°11' W 123°51'561209.0
2015-Aug-02 19:30N 45°37' W 122°48'29905.4
2015-Aug-02 19:28N 46°05' W 122°56'3942.5
2015-Aug-02 18:33N 46°11' W 123°51'561180.5
2015-Aug-02 18:30N 45°37' W 122°48'29349.9
2015-Aug-02 18:25N 46°05' W 122°56'20143.1
2015-Aug-02 18:16N 46°12' W 123°23'4359.0
2015-Aug-02 17:33N 45°37' W 122°48'5620067.9
2015-Aug-02 17:33N 46°11' W 123°51'2072.2
2015-Aug-02 17:16N 46°12' W 123°23'20128.6
2015-Aug-02 17:07N 46°05' W 122°56'3968.5
2015-Aug-02 16:33N 46°11' W 123°51'39493.9
2015-Aug-02 16:28N 46°05' W 122°56'291692.1
2015-Aug-02 16:27N 45°37' W 122°48'0 0.0
2015-Aug-02 15:33N 45°37' W 122°48'5611805.4
2015-Aug-02 15:33N 46°11' W 123°51'39500.9
2015-Aug-02 15:28N 46°05' W 122°56'2931.3
2015-Aug-02 14:33N 45°37' W 122°48'5611805.4
2015-Aug-02 14:33N 46°11' W 123°51'39218.9
2015-Aug-02 14:22N 46°05' W 122°56'3947.6
2015-Aug-02 13:33N 46°11' W 123°51'39119.1
2015-Aug-02 13:13N 46°05' W 122°56'2943.0
2015-Aug-02 12:33N 45°37' W 122°48'5615436.9
2015-Aug-02 12:33N 46°11' W 123°51'20278.1
2015-Aug-02 12:29N 46°12' W 123°23'2065.8
2015-Aug-02 12:10N 46°05' W 122°56'3962.9
2015-Aug-02 11:33N 46°11' W 123°51'561201.7
2015-Aug-02 11:30N 45°37' W 122°48'431859.6
2015-Aug-02 11:29N 46°12' W 123°23'202093.9
2015-Aug-02 11:28N 46°05' W 122°56'2931.3
2015-Aug-02 10:33N 45°37' W 122°48'5614334.2
2015-Aug-02 10:33N 46°11' W 123°51'39493.9
2015-Aug-02 10:28N 46°05' W 122°56'3942.5
2015-Aug-02 09:33N 46°11' W 123°51'56578.3
2015-Aug-02 09:27N 45°37' W 122°48'29157.1
2015-Aug-02 09:16N 46°05' W 122°56'2940.0
2015-Aug-02 08:33N 45°37' W 122°48'5622297.7
2015-Aug-02 08:33N 46°11' W 123°51'0 0.0
2015-Aug-02 07:33N 46°11' W 123°51'391340.5
2015-Aug-02 07:31N 46°05' W 122°56'29132.2
2015-Aug-02 07:18N 45°37' W 122°48'0 0.0
2015-Aug-02 06:33N 45°37' W 122°48'5616724.4
2015-Aug-02 06:33N 46°11' W 123°51'39490.4
2015-Aug-02 06:28N 46°05' W 122°56'2931.3
2015-Aug-02 05:33N 45°37' W 122°48'5616724.4
2015-Aug-02 05:33N 46°11' W 123°51'39487.0
2015-Aug-02 05:28N 46°05' W 122°56'2931.3
2015-Aug-02 04:33N 45°37' W 122°48'5614334.2
2015-Aug-02 04:33N 46°11' W 123°51'39170.6
2015-Aug-02 04:19N 46°05' W 122°56'3950.7
2015-Aug-02 03:33N 46°11' W 123°51'39490.4
2015-Aug-02 03:28N 46°05' W 122°56'291810.5
2015-Aug-02 03:27N 45°37' W 122°48'5661.8
2015-Aug-02 02:33N 46°11' W 123°51'561140.3
2015-Aug-02 02:30N 45°37' W 122°48'29214.6
2015-Aug-02 02:22N 46°05' W 122°56'0 0.0
2015-Aug-02 01:33N 46°05' W 122°56'393273.3
2015-Aug-02 01:33N 46°11' W 123°51'56383.7
2015-Aug-02 01:24N 45°37' W 122°48'0 0.0
2015-Aug-02 00:33N 45°37' W 122°48'5618243.5
2015-Aug-02 00:33N 46°11' W 123°51'396397.8
2015-Aug-02 00:32N 46°05' W 122°56'20122.6
2015-Aug-02 00:23N 46°12' W 123°23'2023.6
2015-Aug-01 23:33N 46°11' W 123°51'396397.8
2015-Aug-01 23:32N 46°05' W 122°56'20309.2
2015-Aug-01 23:29N 46°12' W 123°23'43132.3
2015-Aug-01 23:09N 45°37' W 122°48'5692.3
2015-Aug-01 22:33N 46°11' W 123°51'396702.5
2015-Aug-01 22:32N 46°05' W 122°56'201242.1
2015-Aug-01 22:31N 46°12' W 123°23'43114.9
2015-Aug-01 22:09N 45°37' W 122°48'5692.3
2015-Aug-01 21:33N 46°11' W 123°51'396119.5
2015-Aug-01 21:32N 46°05' W 122°56'29707.0
2015-Aug-01 21:30N 45°37' W 122°48'43563.3
2015-Aug-01 21:25N 46°12' W 123°23'4349.1
2015-Aug-01 20:33N 45°37' W 122°48'561023.9
2015-Aug-01 20:30N 46°11' W 123°51'39128.1
2015-Aug-01 20:12N 46°05' W 122°56'3960.7
2015-Aug-01 19:33N 46°11' W 123°51'561201.7
2015-Aug-01 19:30N 45°37' W 122°48'29179.5
2015-Aug-01 19:20N 46°05' W 122°56'3949.2
2015-Aug-01 18:33N 46°11' W 123°51'3996.3
2015-Aug-01 18:08N 46°05' W 122°56'3966.0
2015-Aug-01 17:33N 46°11' W 123°51'394853.5
2015-Aug-01 17:32N 46°05' W 122°56'29742.6
2015-Aug-01 17:30N 45°37' W 122°48'5658.4
2015-Aug-01 16:33N 46°11' W 123°51'20269.6
2015-Aug-01 16:29N 46°12' W 123°23'20586.3
2015-Aug-01 16:26N 46°05' W 122°56'29207.2
2015-Aug-01 16:18N 45°37' W 122°48'0 0.0
2015-Aug-01 15:33N 45°37' W 122°48'5614334.2
2015-Aug-01 15:33N 46°11' W 123°51'396119.6
2015-Aug-01 15:32N 46°05' W 122°56'3939.3
2015-Aug-01 14:33N 46°11' W 123°51'561231.2
2015-Aug-01 14:30N 45°37' W 122°48'29469.1
2015-Aug-01 14:26N 46°05' W 122°56'2932.3
2015-Aug-01 13:33N 45°37' W 122°48'5614335.2
2015-Aug-01 13:33N 46°11' W 123°51'39152.2
2015-Aug-01 13:17N 46°05' W 122°56'3949.3
2015-Aug-01 12:30N 46°11' W 123°51'39364.6
2015-Aug-01 12:23N 46°05' W 122°56'29323.5
2015-Aug-01 12:18N 45°37' W 122°48'0 0.0
2015-Aug-01 11:33N 45°37' W 122°48'5613378.6
2015-Aug-01 11:33N 46°11' W 123°51'395213.0
2015-Aug-01 11:32N 46°05' W 122°56'3939.4
2015-Aug-01 10:33N 46°11' W 123°51'395413.5
2015-Aug-01 10:32N 46°05' W 122°56'29742.4
2015-Aug-01 10:30N 45°37' W 122°48'5658.4
2015-Aug-01 09:33N 46°11' W 123°51'39693.4
2015-Aug-01 09:30N 46°05' W 122°56'29731.9
2015-Aug-01 09:27N 45°37' W 122°48'0 0.0
2015-Aug-01 08:33N 45°37' W 122°48'5611148.8
2015-Aug-01 08:33N 46°11' W 123°51'395413.4
2015-Aug-01 08:32N 46°05' W 122°56'2084.2
2015-Aug-01 08:18N 46°12' W 123°23'2026.0
2015-Aug-01 07:33N 46°11' W 123°51'56383.0
2015-Aug-01 07:24N 45°37' W 122°48'292243.9
2015-Aug-01 07:23N 46°05' W 122°56'3946.5
2015-Aug-01 06:33N 46°11' W 123°51'561208.9
2015-Aug-01 06:30N 45°37' W 122°48'43141.9
2015-Aug-01 06:12N 46°12' W 123°23'202220.8
2015-Aug-01 06:12N 46°05' W 122°56'3960.9
2015-Aug-01 05:33N 46°11' W 123°51'39673.5
2015-Aug-01 05:29N 46°05' W 122°56'3941.5
2015-Aug-01 04:33N 46°11' W 123°51'56384.5
2015-Aug-01 04:24N 45°37' W 122°48'29176.1
2015-Aug-01 04:14N 46°05' W 122°56'3956.5
2015-Aug-01 03:33N 46°11' W 123°51'56383.7
2015-Aug-01 03:24N 45°37' W 122°48'29254.8
2015-Aug-01 03:18N 46°05' W 122°56'3952.7
2015-Aug-01 02:33N 46°11' W 123°51'395630.1
2015-Aug-01 02:33N 46°05' W 122°56'2958.7
2015-Aug-01 02:03N 45°37' W 122°48'56110.8
2015-Aug-01 01:33N 46°11' W 123°51'39357.2
2015-Aug-01 01:26N 46°05' W 122°56'3943.8
2015-Aug-01 00:33N 46°11' W 123°51'394691.7
2015-Aug-01 00:32N 46°05' W 122°56'29781.8
2015-Aug-01 00:30N 45°37' W 122°48'43105.9
2015-Aug-01 00:06N 46°12' W 123°23'2035.5
2015-Jul-31 23:33N 46°11' W 123°51'39359.1
2015-Jul-31 23:26N 46°05' W 122°56'3943.9
2015-Jul-31 22:33N 46°11' W 123°51'394691.6
2015-Jul-31 22:32N 46°05' W 122°56'20488.6
2015-Jul-31 22:30N 46°12' W 123°23'43946.9
2015-Jul-31 22:27N 45°37' W 122°48'5661.7
2015-Jul-31 21:33N 46°11' W 123°51'2014072.8
2015-Jul-31 21:33N 46°12' W 123°23'202442.9
2015-Jul-31 21:32N 46°05' W 122°56'2929.1
2015-Jul-31 20:33N 45°37' W 122°48'5615437.9
2015-Jul-31 20:33N 46°11' W 123°51'20380.3
2015-Jul-31 20:30N 46°12' W 123°23'20349.0
2015-Jul-31 20:26N 46°05' W 122°56'3943.9
2015-Jul-31 19:33N 46°11' W 123°51'394398.5
2015-Jul-31 19:32N 46°05' W 122°56'29332.9
2015-Jul-31 19:27N 45°37' W 122°48'5661.7
2015-Jul-31 18:33N 46°11' W 123°51'393804.1
2015-Jul-31 18:32N 46°05' W 122°56'29331.9
2015-Jul-31 18:27N 45°37' W 122°48'5661.7
2015-Jul-31 17:33N 46°11' W 123°51'56581.7
2015-Jul-31 17:27N 45°37' W 122°48'5661.7
2015-Jul-31 16:33N 46°11' W 123°51'394021.5
2015-Jul-31 16:32N 46°05' W 122°56'29211.0
2015-Jul-31 16:24N 45°37' W 122°48'5665.3
2015-Jul-31 15:33N 46°11' W 123°51'561208.9
2015-Jul-31 15:30N 45°37' W 122°48'292064.0
2015-Jul-31 15:30N 46°05' W 122°56'3941.6
2015-Jul-31 14:33N 46°11' W 123°51'20193.8
2015-Jul-31 14:27N 46°12' W 123°23'202290.4
2015-Jul-31 14:26N 46°05' W 122°56'29335.1
2015-Jul-31 14:21N 45°37' W 122°48'5669.3
2015-Jul-31 13:33N 46°11' W 123°51'393909.8
2015-Jul-31 13:32N 46°05' W 122°56'29812.8
2015-Jul-31 13:30N 45°37' W 122°48'5658.4
2015-Jul-31 12:33N 46°11' W 123°51'56581.6
2015-Jul-31 12:27N 45°37' W 122°48'29251.7
2015-Jul-31 12:20N 46°05' W 122°56'3949.6
2015-Jul-31 11:33N 46°11' W 123°51'393273.3
2015-Jul-31 11:32N 46°05' W 122°56'20222.8
2015-Jul-31 11:27N 46°12' W 123°23'43989.4
2015-Jul-31 11:24N 45°37' W 122°48'5665.2
2015-Jul-31 10:33N 46°11' W 123°51'2014072.8
2015-Jul-31 10:33N 46°12' W 123°23'43453.9
2015-Jul-31 10:27N 45°37' W 122°48'291947.1
2015-Jul-31 10:26N 46°05' W 122°56'3944.0
2015-Jul-31 09:33N 46°11' W 123°51'393609.0
2015-Jul-31 09:32N 46°05' W 122°56'29213.2
2015-Jul-31 09:24N 45°37' W 122°48'43267.0
2015-Jul-31 09:15N 46°12' W 123°23'2028.2
2015-Jul-31 08:33N 46°11' W 123°51'39352.8
2015-Jul-31 08:26N 46°05' W 122°56'29212.0
2015-Jul-31 08:18N 45°37' W 122°48'5674.1
2015-Jul-31 07:33N 46°11' W 123°51'393059.8
2015-Jul-31 07:32N 46°05' W 122°56'29122.3
2015-Jul-31 07:18N 45°37' W 122°48'43268.4
2015-Jul-31 07:09N 46°12' W 123°23'4372.7
2015-Jul-31 06:33N 45°37' W 122°48'5615437.9
2015-Jul-31 06:33N 46°11' W 123°51'39241.8
2015-Jul-31 06:24N 46°05' W 122°56'2934.3
2015-Jul-31 05:33N 45°37' W 122°48'5615436.8
2015-Jul-31 05:33N 46°11' W 123°51'393351.2
2015-Jul-31 05:32N 46°05' W 122°56'3939.5
2015-Jul-31 04:33N 46°11' W 123°51'393518.8
2015-Jul-31 04:32N 46°05' W 122°56'29213.7
2015-Jul-31 04:24N 45°37' W 122°48'5665.2
2015-Jul-31 03:33N 46°11' W 123°51'393351.2
2015-Jul-31 03:32N 46°05' W 122°56'2974.7
2015-Jul-31 03:09N 45°37' W 122°48'5692.2
2015-Jul-31 02:33N 46°11' W 123°51'393433.0
2015-Jul-31 02:32N 46°05' W 122°56'29839.0
2015-Jul-31 02:30N 45°37' W 122°48'5658.4
2015-Jul-31 01:33N 46°11' W 123°51'393273.3
2015-Jul-31 01:32N 46°05' W 122°56'29214.5
2015-Jul-31 01:24N 45°37' W 122°48'5665.3
2015-Jul-31 00:33N 46°11' W 123°51'393127.8
2015-Jul-31 00:32N 46°05' W 122°56'2974.8
2015-Jul-31 00:09N 45°37' W 122°48'0 0.0
2015-Jul-30 23:33N 45°37' W 122°48'5622297.7
2015-Jul-30 23:33N 46°11' W 123°51'39345.0
2015-Jul-30 23:27N 46°05' W 122°56'3944.1
2015-Jul-30 22:33N 46°11' W 123°51'561223.7
2015-Jul-30 22:31N 45°37' W 122°48'29171.1
2015-Jul-30 22:20N 46°05' W 122°56'2936.6
2015-Jul-30 21:34N 45°37' W 122°48'5616724.4
2015-Jul-30 21:33N 46°11' W 123°51'39148.8
2015-Jul-30 21:18N 46°05' W 122°56'3953.0
2015-Jul-30 20:33N 46°11' W 123°51'393059.8
2015-Jul-30 20:32N 46°05' W 122°56'29156.6
2015-Jul-30 20:22N 45°37' W 122°48'5669.4
2015-Jul-30 19:33N 46°11' W 123°51'561187.4
2015-Jul-30 19:30N 45°37' W 122°48'0 0.0
2015-Jul-30 18:34N 45°37' W 122°48'5616723.2
2015-Jul-30 18:33N 46°11' W 123°51'39107.4
2015-Jul-30 18:11N 46°05' W 122°56'3961.4
2015-Jul-30 17:33N 46°11' W 123°51'201599.2
2015-Jul-30 17:33N 46°12' W 123°23'20135.5
2015-Jul-30 17:24N 46°05' W 122°56'29158.3
2015-Jul-30 17:13N 45°37' W 122°48'5685.1
2015-Jul-30 16:33N 46°11' W 123°51'561187.5
2015-Jul-30 16:31N 45°37' W 122°48'291664.8
2015-Jul-30 16:29N 46°05' W 122°56'20101.9
2015-Jul-30 16:18N 46°12' W 123°23'2027.1
2015-Jul-30 15:32N 46°05' W 122°56'29905.2
2015-Jul-30 15:31N 45°37' W 122°48'5616723.2
2015-Jul-30 15:30N 46°11' W 123°51'0 0.0
2015-Jul-30 14:33N 46°11' W 123°51'39614.6
2015-Jul-30 14:30N 46°05' W 122°56'3941.8
2015-Jul-30 13:33N 46°11' W 123°51'392469.3
2015-Jul-30 13:32N 46°05' W 122°56'20414.0
2015-Jul-30 13:30N 46°12' W 123°23'431353.9
2015-Jul-30 13:28N 45°37' W 122°48'2931.2
2015-Jul-30 12:32N 46°05' W 122°56'391117.1
2015-Jul-30 12:30N 46°11' W 123°51'561201.7
2015-Jul-30 12:28N 45°37' W 122°48'43197.6
2015-Jul-30 12:15N 46°12' W 123°23'2028.5
2015-Jul-30 11:33N 46°11' W 123°51'20172.5
2015-Jul-30 11:27N 46°12' W 123°23'2014657.1
2015-Jul-30 11:26N 46°05' W 122°56'29101.8
2015-Jul-30 11:10N 45°37' W 122°48'5692.3
2015-Jul-30 10:33N 46°11' W 123°51'392706.8
2015-Jul-30 10:32N 46°05' W 122°56'29921.4
2015-Jul-30 10:31N 45°37' W 122°48'432411.4
2015-Jul-30 10:30N 46°12' W 123°23'2020.9
2015-Jul-30 09:33N 46°11' W 123°51'201379.7
2015-Jul-30 09:33N 46°12' W 123°23'431378.1
2015-Jul-30 09:31N 45°37' W 122°48'29169.2
2015-Jul-30 09:20N 46°05' W 122°56'3949.8
2015-Jul-30 08:33N 46°11' W 123°51'392706.7
2015-Jul-30 08:32N 46°05' W 122°56'29929.9
2015-Jul-30 08:31N 45°37' W 122°48'43624.9
2015-Jul-30 08:26N 46°12' W 123°23'2022.1
2015-Jul-30 07:33N 46°11' W 123°51'392655.6
2015-Jul-30 07:32N 46°05' W 122°56'29929.9
2015-Jul-30 07:31N 45°37' W 122°48'43196.1
2015-Jul-30 07:18N 46°12' W 123°23'2026.6
2015-Jul-30 06:33N 46°11' W 123°51'20171.2
2015-Jul-30 06:27N 46°12' W 123°23'2018321.4
2015-Jul-30 06:26N 46°05' W 122°56'3941.8
2015-Jul-30 05:30N 46°11' W 123°51'561223.7
2015-Jul-30 05:28N 45°37' W 122°48'291453.5
2015-Jul-30 05:26N 46°05' W 122°56'3944.2
2015-Jul-30 04:33N 46°11' W 123°51'561216.2
2015-Jul-30 04:31N 45°37' W 122°48'29239.4
2015-Jul-30 04:23N 46°05' W 122°56'3946.8
2015-Jul-30 03:33N 46°11' W 123°51'561238.8
2015-Jul-30 03:31N 45°37' W 122°48'29409.5
2015-Jul-30 03:26N 46°05' W 122°56'3944.2
2015-Jul-30 02:33N 46°11' W 123°51'392426.8
2015-Jul-30 02:32N 46°05' W 122°56'29220.1
2015-Jul-30 02:25N 45°37' W 122°48'5665.2
2015-Jul-30 01:33N 46°11' W 123°51'561223.7
2015-Jul-30 01:31N 45°37' W 122°48'291495.6
2015-Jul-30 01:30N 46°05' W 122°56'2929.2
2015-Jul-30 00:31N 45°37' W 122°48'5615436.8
2015-Jul-30 00:30N 46°11' W 123°51'39337.5
2015-Jul-30 00:24N 46°05' W 122°56'3946.8
2015-Jul-29 23:33N 46°11' W 123°51'392469.3
2015-Jul-29 23:32N 46°05' W 122°56'29364.7
2015-Jul-29 23:28N 45°37' W 122°48'5661.6
2015-Jul-29 22:33N 46°11' W 123°51'39338.3
2015-Jul-29 22:26N 46°05' W 122°56'29124.8
2015-Jul-29 22:13N 45°37' W 122°48'5685.3
2015-Jul-29 21:33N 46°11' W 123°51'56588.5
2015-Jul-29 21:28N 45°37' W 122°48'29403.2
2015-Jul-29 21:24N 46°05' W 122°56'3946.9
2015-Jul-29 20:33N 46°11' W 123°51'561231.2
2015-Jul-29 20:31N 45°37' W 122°48'291517.9
2015-Jul-29 20:30N 46°05' W 122°56'3941.8
2015-Jul-29 19:33N 46°11' W 123°51'392307.4
2015-Jul-29 19:32N 46°05' W 122°56'29222.5
2015-Jul-29 19:25N 45°37' W 122°48'5665.2
2015-Jul-29 18:33N 46°11' W 123°51'561238.8
2015-Jul-29 18:31N 45°37' W 122°48'29167.3
2015-Jul-29 18:20N 46°05' W 122°56'3949.9
2015-Jul-29 17:33N 46°11' W 123°51'392706.8
2015-Jul-29 17:33N 46°05' W 122°56'29102.1
2015-Jul-29 17:16N 45°37' W 122°48'432057.8
2015-Jul-29 17:14N 46°12' W 123°23'2028.6
2015-Jul-29 16:33N 46°11' W 123°51'39334.3
2015-Jul-29 16:26N 46°05' W 122°56'291012.0
2015-Jul-29 16:25N 45°37' W 122°48'43219.2
2015-Jul-29 16:13N 46°12' W 123°23'2029.7
2015-Jul-29 15:34N 46°11' W 123°51'39576.9
2015-Jul-29 15:29N 46°05' W 122°56'291001.9
2015-Jul-29 15:28N 45°37' W 122°48'5661.7
2015-Jul-29 14:33N 46°11' W 123°51'392307.4
2015-Jul-29 14:32N 46°05' W 122°56'29222.9
2015-Jul-29 14:25N 45°37' W 122°48'5665.3
2015-Jul-29 13:34N 46°11' W 123°51'39332.7
2015-Jul-29 13:26N 46°05' W 122°56'29160.8
2015-Jul-29 13:16N 45°37' W 122°48'0 0.0
2015-Jul-29 12:31N 45°37' W 122°48'569555.5
2015-Jul-29 12:31N 46°11' W 123°51'392307.4
2015-Jul-29 12:29N 46°05' W 122°56'2929.3
2015-Jul-29 11:31N 45°37' W 122°48'5613378.6
2015-Jul-29 11:31N 46°11' W 123°51'39579.2
2015-Jul-29 11:26N 46°05' W 122°56'0 0.0
2015-Jul-29 10:32N 46°05' W 122°56'391234.7
2015-Jul-29 10:31N 46°11' W 123°51'56581.7
2015-Jul-29 10:25N 45°37' W 122°48'43443.5
2015-Jul-29 10:19N 46°12' W 123°23'2026.3
2015-Jul-29 09:33N 46°05' W 122°56'20779.6
2015-Jul-29 09:31N 46°12' W 123°23'4319291.4
2015-Jul-29 09:31N 45°37' W 122°48'5612542.4
2015-Jul-29 09:31N 46°11' W 123°51'0 0.0
2015-Jul-29 08:34N 46°11' W 123°51'392165.4
2015-Jul-29 08:32N 46°05' W 122°56'20163.6
2015-Jul-29 08:25N 46°12' W 123°23'4315434.9
2015-Jul-29 08:25N 45°37' W 122°48'0 0.0
2015-Jul-29 07:31N 45°37' W 122°48'291258.8
2015-Jul-29 07:29N 46°05' W 122°56'391268.0
2015-Jul-29 07:28N 46°11' W 123°51'3942.5
2015-Jul-29 06:32N 46°05' W 122°56'20852.2
2015-Jul-29 06:31N 46°12' W 123°23'4312862.4
2015-Jul-29 06:31N 45°37' W 122°48'5616723.3
2015-Jul-29 06:31N 46°11' W 123°51'3940.3
2015-Jul-29 05:32N 46°05' W 122°56'20852.2
2015-Jul-29 05:31N 46°12' W 123°23'4317148.0
2015-Jul-29 05:31N 45°37' W 122°48'5612542.4
2015-Jul-29 05:31N 46°11' W 123°51'3940.3
2015-Jul-29 04:32N 46°05' W 122°56'29375.3
2015-Jul-29 04:28N 45°37' W 122°48'5614334.2
2015-Jul-29 04:28N 46°11' W 123°51'3942.5
2015-Jul-29 03:32N 46°05' W 122°56'391256.7
2015-Jul-29 03:31N 46°11' W 123°51'561223.7
2015-Jul-29 03:28N 45°37' W 122°48'5658.4
2015-Jul-29 02:31N 46°11' W 123°51'392100.8
2015-Jul-29 02:30N 46°05' W 122°56'0 0.0
2015-Jul-29 01:32N 46°05' W 122°56'391291.3
2015-Jul-29 01:31N 46°11' W 123°51'561194.6
2015-Jul-29 01:28N 45°37' W 122°48'5658.4
2015-Jul-29 00:31N 46°11' W 123°51'561216.3
2015-Jul-29 00:28N 45°37' W 122°48'291214.3
2015-Jul-29 00:26N 46°05' W 122°56'0 0.0
2015-Jul-28 23:32N 46°05' W 122°56'391291.3
2015-Jul-28 23:31N 46°11' W 123°51'3940.3
2015-Jul-28 22:32N 46°05' W 122°56'291075.2
2015-Jul-28 22:31N 45°37' W 122°48'5612543.3
2015-Jul-28 22:31N 46°11' W 123°51'2 2.2
2015-Jul-28 21:33N 46°12' W 123°48'37572.5
2015-Jul-28 21:29N 46°05' W 122°56'291122.0
2015-Jul-28 21:28N 45°37' W 122°48'4852.0
2015-Jul-28 20:33N 46°16' W 123°28'25117.1
2015-Jul-28 20:20N 46°05' W 122°56'1722.2
2015-Jul-28 19:33N 46°09' W 123°20'171535.5
2015-Jul-28 19:32N 46°05' W 122°56'291134.3
2015-Jul-28 19:31N 45°37' W 122°48'2929.0
2015-Jul-28 18:31N 46°05' W 122°56'298656.2
2015-Jul-28 18:31N 45°37' W 122°48'43286.9
2015-Jul-28 18:22N 46°12' W 123°23'20814.3
2015-Jul-28 18:20N 46°05' W 122°56'0 0.3
2015-Jul-28 17:30N 46°05' W 122°56'025.0
2015-Jul-28 17:29N 46°05' W 122°56'2976.3
2015-Jul-28 17:07N 45°37' W 122°48'2238.9
2015-Jul-28 16:33N 45°59' W 122°50'7681.5
2015-Jul-28 16:32N 46°05' W 122°56'291146.9
2015-Jul-28 16:31N 45°37' W 122°48'3 3.2
2015-Jul-28 15:33N 45°39' W 122°45'272478.6
2015-Jul-28 15:32N 46°05' W 122°56'29382.2
2015-Jul-28 15:28N 45°37' W 122°48'5 5.0
2015-Jul-28 14:31N 45°34' W 122°43'4710039.0
2015-Jul-28 14:31N 46°12' W 123°23'4377174.7
2015-Jul-28 14:31N 45°37' W 122°48'29385.1
2015-Jul-28 14:27N 46°05' W 122°56'3234.0
2015-Jul-28 13:29N 45°34' W 122°43'5234.8
2015-Jul-28 13:28N 45°37' W 122°48'291134.3
2015-Jul-28 13:27N 46°05' W 122°56'2929.4
2015-Jul-28 12:28N 45°37' W 122°48'559.8
2015-Jul-28 12:23N 45°34' W 122°43'32704.3
2015-Jul-28 12:20N 46°05' W 122°56'0 0.0
2015-Jul-28 11:32N 46°05' W 122°56'291228.8
2015-Jul-28 11:31N 45°37' W 122°48'5157.3
2015-Jul-28 11:29N 45°34' W 122°43'3234.3
2015-Jul-28 10:32N 46°05' W 122°56'29231.9
2015-Jul-28 10:25N 45°37' W 122°48'5157.4
2015-Jul-28 10:23N 45°34' W 122°43'3238.4
2015-Jul-28 09:32N 46°05' W 122°56'291186.2
2015-Jul-28 09:31N 45°37' W 122°48'5161.7
2015-Jul-28 09:29N 45°34' W 122°43'5 4.9
2015-Jul-28 08:31N 45°37' W 122°48'5160.2
2015-Jul-28 08:29N 45°34' W 122°43'32131.8
2015-Jul-28 08:14N 46°05' W 122°56'0 0.0
2015-Jul-28 07:32N 46°05' W 122°56'291200.2
2015-Jul-28 07:31N 45°37' W 122°48'520.8
2015-Jul-28 07:17N 45°34' W 122°43'3243.5
2015-Jul-28 06:32N 46°05' W 122°56'291200.2
2015-Jul-28 06:31N 45°37' W 122°48'536.7
2015-Jul-28 06:23N 45°34' W 122°43'3238.4
2015-Jul-28 05:32N 46°05' W 122°56'29128.0
2015-Jul-28 05:19N 45°37' W 122°48'520.8
2015-Jul-28 05:05N 45°34' W 122°43'3259.3
2015-Jul-28 04:32N 46°05' W 122°56'3210628.2
2015-Jul-28 04:32N 45°34' W 122°43'5238.1
2015-Jul-28 04:31N 45°37' W 122°48'2927.9
2015-Jul-28 03:30N 46°05' W 122°56'32602.6
2015-Jul-28 03:26N 45°34' W 122°43'567.5
2015-Jul-28 03:22N 45°37' W 122°48'2934.7
2015-Jul-28 02:32N 46°05' W 122°56'3212990.0
2015-Jul-28 02:32N 45°34' W 122°43'539.4
2015-Jul-28 02:25N 45°37' W 122°48'2932.7
2015-Jul-28 01:33N 46°05' W 122°56'291186.2
2015-Jul-28 01:31N 45°37' W 122°48'5164.9
2015-Jul-28 01:29N 45°34' W 122°43'3234.3
2015-Jul-28 00:32N 46°05' W 122°56'3214613.8
2015-Jul-28 00:32N 45°34' W 122°43'539.3
2015-Jul-28 00:25N 45°37' W 122°48'8 8.9
2015-Jul-27 23:33N 45°45' W 122°46'221432.7
2015-Jul-27 23:32N 46°05' W 122°56'291306.6
2015-Jul-27 23:31N 45°37' W 122°48'0 0.0
2015-Jul-27 22:28N 45°37' W 122°48'152135.5
2015-Jul-27 22:28N 45°52' W 122°48'1465.5
2015-Jul-27 22:14N 46°05' W 122°56'0 0.0
2015-Jul-27 21:32N 46°05' W 122°56'291306.6
2015-Jul-27 21:31N 45°37' W 122°48'152224.5
2015-Jul-27 21:31N 45°52' W 122°48'1414.9
2015-Jul-27 20:33N 46°05' W 122°56'291243.6
2015-Jul-27 20:31N 45°37' W 122°48'15263.0
2015-Jul-27 20:28N 45°52' W 122°48'1413.5
2015-Jul-27 19:24N 46°05' W 122°56'29234.0
2015-Jul-27 19:16N 45°37' W 122°48'43280.6
2015-Jul-27 19:07N 46°12' W 123°23'4371.8
2015-Jul-27 18:31N 45°37' W 122°48'4319293.7
2015-Jul-27 18:31N 46°12' W 123°23'329605.0
2015-Jul-27 18:31N 45°52' W 122°48'1438.9
2015-Jul-27 18:09N 46°05' W 122°56'2939.7
2015-Jul-27 17:25N 45°37' W 122°48'152135.5
2015-Jul-27 17:25N 45°52' W 122°48'14203.4
2015-Jul-27 17:21N 46°05' W 122°56'2934.9
2015-Jul-27 16:31N 45°37' W 122°48'4319293.7
2015-Jul-27 16:31N 46°12' W 123°23'32585.0
2015-Jul-27 16:28N 45°52' W 122°48'14201.7
2015-Jul-27 16:23N 46°05' W 122°56'0 0.0
2015-Jul-27 15:32N 46°05' W 122°56'291323.1
2015-Jul-27 15:31N 45°37' W 122°48'15262.9
2015-Jul-27 15:28N 45°52' W 122°48'1515.7
2015-Jul-27 14:31N 45°37' W 122°48'291002.1
2015-Jul-27 14:29N 46°05' W 122°56'20274.5
2015-Jul-27 14:25N 46°12' W 123°23'329605.0
2015-Jul-27 14:25N 45°52' W 122°48'1416.6
2015-Jul-27 13:32N 46°05' W 122°56'14515.5
2015-Jul-27 13:31N 45°52' W 122°48'1576.9
2015-Jul-27 13:19N 45°37' W 122°48'0 0.0
2015-Jul-27 12:31N 45°37' W 122°48'15139.4
2015-Jul-27 12:25N 45°52' W 122°48'14627.3
2015-Jul-27 12:23N 46°05' W 122°56'0 0.0
2015-Jul-27 11:30N 46°05' W 122°56'291358.2
2015-Jul-27 11:28N 45°37' W 122°48'152224.5
2015-Jul-27 11:28N 45°52' W 122°48'1515.7
2015-Jul-27 10:31N 45°37' W 122°48'152053.4
2015-Jul-27 10:31N 45°52' W 122°48'14642.5
2015-Jul-27 10:30N 46°05' W 122°56'0 0.0
2015-Jul-27 09:32N 46°05' W 122°56'291394.9
2015-Jul-27 09:31N 45°37' W 122°48'4312863.9
2015-Jul-27 09:31N 46°12' W 123°23'32310.7
2015-Jul-27 09:25N 45°52' W 122°48'1416.6
2015-Jul-27 08:32N 46°05' W 122°56'29406.4
2015-Jul-27 08:28N 45°37' W 122°48'15263.0
2015-Jul-27 08:25N 45°52' W 122°48'1416.6
2015-Jul-27 07:32N 46°05' W 122°56'14536.7
2015-Jul-27 07:31N 45°52' W 122°48'15159.4
2015-Jul-27 07:25N 45°37' W 122°48'2932.6
2015-Jul-27 06:32N 46°05' W 122°56'14536.7
2015-Jul-27 06:31N 45°52' W 122°48'15346.7
2015-Jul-27 06:28N 45°37' W 122°48'43120.7
2015-Jul-27 06:07N 46°12' W 123°23'2035.4
2015-Jul-27 05:32N 46°05' W 122°56'291433.3
2015-Jul-27 05:31N 45°37' W 122°48'15139.4
2015-Jul-27 05:25N 45°52' W 122°48'32329.3
2015-Jul-27 05:19N 46°12' W 123°23'4353.8
2015-Jul-27 04:31N 45°37' W 122°48'29982.8
2015-Jul-27 04:30N 46°05' W 122°56'14536.5
2015-Jul-27 04:28N 45°52' W 122°48'1415.7
2015-Jul-27 03:32N 46°05' W 122°56'291474.6
2015-Jul-27 03:31N 45°37' W 122°48'152135.5
2015-Jul-27 03:31N 45°52' W 122°48'32326.5
2015-Jul-27 03:25N 46°12' W 123°23'4347.9
2015-Jul-27 02:31N 45°37' W 122°48'15261.6
2015-Jul-27 02:28N 45°52' W 122°48'14612.5
2015-Jul-27 02:26N 46°05' W 122°56'0 0.0
2015-Jul-27 01:33N 46°05' W 122°56'291453.5
2015-Jul-27 01:31N 45°37' W 122°48'15138.3
2015-Jul-27 01:25N 45°52' W 122°48'1416.5
2015-Jul-27 00:32N 46°05' W 122°56'29414.5
2015-Jul-27 00:28N 45°37' W 122°48'152225.4
2015-Jul-27 00:28N 45°52' W 122°48'1415.6
2015-Jul-26 23:32N 46°05' W 122°56'291540.6
2015-Jul-26 23:31N 45°37' W 122°48'15261.7
2015-Jul-26 23:28N 45°52' W 122°48'1415.6
2015-Jul-26 22:32N 46°05' W 122°56'291474.6
2015-Jul-26 22:31N 45°37' W 122°48'15264.3
2015-Jul-26 22:28N 45°52' W 122°48'3291.5
2015-Jul-26 22:07N 46°12' W 123°23'2035.4
2015-Jul-26 21:32N 46°05' W 122°56'29414.5
2015-Jul-26 21:28N 45°37' W 122°48'152542.2
2015-Jul-26 21:28N 45°52' W 122°48'1415.6
2015-Jul-26 20:32N 46°05' W 122°56'14559.8
2015-Jul-26 20:31N 45°52' W 122°48'15340.0
2015-Jul-26 20:28N 45°37' W 122°48'0 0.0
2015-Jul-26 19:31N 45°37' W 122°48'29921.6
2015-Jul-26 19:29N 46°05' W 122°56'14192.8
2015-Jul-26 19:25N 45°52' W 122°48'1416.5
2015-Jul-26 18:32N 46°05' W 122°56'291563.9
2015-Jul-26 18:31N 45°37' W 122°48'152322.1
2015-Jul-26 18:31N 45°52' W 122°48'32320.1
2015-Jul-26 18:25N 46°12' W 123°23'2023.3
2015-Jul-26 17:32N 46°05' W 122°56'291588.0
2015-Jul-26 17:31N 45°37' W 122°48'152321.2
2015-Jul-26 17:31N 45°52' W 122°48'1414.8
2015-Jul-26 16:32N 46°05' W 122°56'14598.2
2015-Jul-26 16:31N 45°52' W 122°48'15333.7
2015-Jul-26 16:28N 45°37' W 122°48'0 0.0
2015-Jul-26 15:31N 45°37' W 122°48'152224.5
2015-Jul-26 15:31N 45°52' W 122°48'14115.4
2015-Jul-26 15:23N 46°05' W 122°56'20273.5
2015-Jul-26 15:19N 46°12' W 123°23'4354.1
2015-Jul-26 14:31N 45°37' W 122°48'15257.9
2015-Jul-26 14:28N 45°52' W 122°48'14598.4
2015-Jul-26 14:27N 46°05' W 122°56'0 0.0
2015-Jul-26 13:33N 46°05' W 122°56'29417.9
2015-Jul-26 13:28N 45°37' W 122°48'15265.6
2015-Jul-26 13:25N 45°52' W 122°48'32159.4
2015-Jul-26 13:13N 46°12' W 123°23'4361.9
2015-Jul-26 12:31N 45°37' W 122°48'29346.4
2015-Jul-26 12:26N 46°05' W 122°56'20814.3
2015-Jul-26 12:25N 46°12' W 123°23'32651.2
2015-Jul-26 12:22N 45°52' W 122°48'1517.6
2015-Jul-26 11:31N 45°37' W 122°48'152321.2
2015-Jul-26 11:31N 45°52' W 122°48'3257629.9
2015-Jul-26 11:31N 46°12' W 123°23'20779.6
2015-Jul-26 11:29N 46°05' W 122°56'0 0.0
2015-Jul-26 10:32N 46°05' W 122°56'20163.2
2015-Jul-26 10:25N 46°12' W 123°23'43223.7
2015-Jul-26 10:13N 45°37' W 122°48'2942.0
2015-Jul-26 09:32N 46°05' W 122°56'20814.3
2015-Jul-26 09:31N 46°12' W 123°23'431035.8
2015-Jul-26 09:29N 45°37' W 122°48'151906.7
2015-Jul-26 09:28N 45°52' W 122°48'0 0.0
2015-Jul-26 08:28N 45°52' W 122°48'14114.9
2015-Jul-26 08:21N 46°05' W 122°56'20862.2
2015-Jul-26 08:19N 46°12' W 123°23'431002.3
2015-Jul-26 08:17N 45°37' W 122°48'0 0.0
2015-Jul-26 07:31N 45°37' W 122°48'435716.6
2015-Jul-26 07:31N 46°12' W 123°23'20269.4
2015-Jul-26 07:27N 46°05' W 122°56'14627.3
2015-Jul-26 07:25N 45°52' W 122°48'0 0.0
2015-Jul-26 06:31N 45°52' W 122°48'3212805.1
2015-Jul-26 06:31N 46°12' W 123°23'431035.9
2015-Jul-26 06:29N 45°37' W 122°48'29853.1
2015-Jul-26 06:26N 46°05' W 122°56'  
Track history (hours):
 
Tides and Currents Weather Stations Pressure Air Temp Water Temp Dewpoint Dewpoint Depression Visibility Wind Speed Wind Dir Waves Ship Positions

Zarling

Owner: Clean Rivers Co-op, Portland, OR. More information available from US FCC via Universal Licensing System.

Last reported at 2015-Aug-05 05:33 UTC. Time now 2015-Aug-05 06:29 UTC.
Position N 46°05' W 122°56'.

Length 12 m.

Type: Pollution control. MMSI: 3699126.

Date/timePositionNaut miles runAvg speedWind from/ knotsBaromVisibWave heightAir tempDewpointWater temp
2015-Aug-05 05:33N 46°05' W 122°56'294127.9
2015-Aug-05 05:32N 45°37' W 122°48'5615436.8
2015-Aug-05 05:32N 46°11' W 123°51'3939.5
2015-Aug-05 04:33N 46°05' W 122°56'294486.9
2015-Aug-05 04:32N 45°37' W 122°48'5620067.9
2015-Aug-05 04:32N 46°11' W 123°51'20237.7
2015-Aug-05 04:27N 46°12' W 123°23'2022.4
2015-Aug-05 03:33N 46°05' W 122°56'393609.0
2015-Aug-05 03:32N 46°11' W 123°51'561201.7
2015-Aug-05 03:29N 45°37' W 122°48'0 0.0
2015-Aug-05 02:32N 45°37' W 122°48'5618244.7
2015-Aug-05 02:32N 46°11' W 123°51'39279.3
2015-Aug-05 02:24N 46°05' W 122°56'3945.5
2015-Aug-05 01:32N 46°11' W 123°51'39430.4
2015-Aug-05 01:27N 46°05' W 122°56'294691.8
2015-Aug-05 01:26N 45°37' W 122°48'431225.0
2015-Aug-05 01:24N 46°12' W 123°23'2023.7
2015-Aug-05 00:33N 46°05' W 122°56'294299.9
2015-Aug-05 00:32N 45°37' W 122°48'5633446.5
2015-Aug-05 00:32N 46°11' W 123°51'3939.5
2015-Aug-04 23:33N 46°05' W 122°56'293970.0
2015-Aug-04 23:32N 45°37' W 122°48'5633448.7
2015-Aug-04 23:32N 46°11' W 123°51'3939.4
2015-Aug-04 22:33N 46°05' W 122°56'394139.8
2015-Aug-04 22:32N 46°11' W 123°51'56380.8
2015-Aug-04 22:23N 45°37' W 122°48'0 0.0
2015-Aug-04 21:32N 45°37' W 122°48'5616724.4
2015-Aug-04 21:32N 46°11' W 123°51'39429.1
2015-Aug-04 21:27N 46°05' W 122°56'2931.7
2015-Aug-04 20:32N 45°37' W 122°48'5622299.1
2015-Aug-04 20:32N 46°11' W 123°51'391737.7
2015-Aug-04 20:31N 46°05' W 122°56'2929.4
2015-Aug-04 19:32N 45°37' W 122°48'291186.4
2015-Aug-04 19:31N 46°05' W 122°56'391315.4
2015-Aug-04 19:29N 46°11' W 123°51'0 0.0
2015-Aug-04 18:32N 46°11' W 123°51'391804.5
2015-Aug-04 18:31N 46°05' W 122°56'29379.5
2015-Aug-04 18:26N 45°37' W 122°48'4348.2
2015-Aug-04 17:33N 46°12' W 123°23'434677.3
2015-Aug-04 17:32N 45°37' W 122°48'5616724.4
2015-Aug-04 17:32N 46°11' W 123°51'39322.8
2015-Aug-04 17:25N 46°05' W 122°56'3944.5
2015-Aug-04 16:32N 46°11' W 123°51'56284.7
2015-Aug-04 16:20N 45°37' W 122°48'29127.4
2015-Aug-04 16:07N 46°05' W 122°56'2949.8
2015-Aug-04 15:32N 45°37' W 122°48'5625084.9
2015-Aug-04 15:32N 46°11' W 123°51'391695.8
2015-Aug-04 15:31N 46°05' W 122°56'20318.6
2015-Aug-04 15:27N 46°12' W 123°23'2021.4
2015-Aug-04 14:32N 46°11' W 123°51'39543.4
2015-Aug-04 14:28N 46°05' W 122°56'29386.6
2015-Aug-04 14:24N 45°37' W 122°48'431035.9
2015-Aug-04 14:21N 46°12' W 123°23'2024.1
2015-Aug-04 13:32N 46°11' W 123°51'391716.5
2015-Aug-04 13:31N 46°05' W 122°56'291200.2
2015-Aug-04 13:30N 45°37' W 122°48'431035.9
2015-Aug-04 13:27N 46°12' W 123°23'2021.5
2015-Aug-04 12:32N 46°11' W 123°51'391675.6
2015-Aug-04 12:31N 46°05' W 122°56'291159.8
2015-Aug-04 12:29N 45°37' W 122°48'43223.4
2015-Aug-04 12:18N 46°12' W 123°23'2025.7
2015-Aug-04 11:32N 46°11' W 123°51'391781.7
2015-Aug-04 11:31N 46°05' W 122°56'29385.1
2015-Aug-04 11:27N 45°37' W 122°48'5661.7
2015-Aug-04 10:32N 46°11' W 123°51'39319.2
2015-Aug-04 10:25N 46°05' W 122°56'3944.6
2015-Aug-04 09:32N 46°11' W 123°51'391695.8
2015-Aug-04 09:31N 46°05' W 122°56'29104.8
2015-Aug-04 09:15N 45°37' W 122°48'5679.2
2015-Aug-04 08:32N 46°11' W 123°51'391737.7
2015-Aug-04 08:31N 46°05' W 122°56'29232.0
2015-Aug-04 08:24N 45°37' W 122°48'43177.2
2015-Aug-04 08:09N 46°12' W 123°23'2032.0
2015-Aug-04 07:32N 46°11' W 123°51'39317.7
2015-Aug-04 07:25N 46°05' W 122°56'29392.5
2015-Aug-04 07:21N 45°37' W 122°48'0 0.0
2015-Aug-04 06:33N 45°37' W 122°48'5618243.6
2015-Aug-04 06:32N 46°11' W 123°51'391737.6
2015-Aug-04 06:31N 46°05' W 122°56'2021.1
2015-Aug-04 05:33N 46°12' W 123°23'201851.7
2015-Aug-04 05:32N 46°11' W 123°51'391655.9
2015-Aug-04 05:31N 46°05' W 122°56'29389.5
2015-Aug-04 05:27N 45°37' W 122°48'2930.9
2015-Aug-04 04:31N 46°05' W 122°56'391451.1
2015-Aug-04 04:29N 46°11' W 123°51'561201.7
2015-Aug-04 04:27N 45°37' W 122°48'43109.2
2015-Aug-04 04:03N 46°12' W 123°23'0 0.0
2015-Aug-04 03:33N 46°12' W 123°23'435936.5
2015-Aug-04 03:33N 45°37' W 122°48'5620069.2
2015-Aug-04 03:32N 46°11' W 123°51'391581.5
2015-Aug-04 03:31N 46°05' W 122°56'2929.5
2015-Aug-04 02:33N 45°37' W 122°48'5613378.6
2015-Aug-04 02:32N 46°11' W 123°51'391636.6
2015-Aug-04 02:31N 46°05' W 122°56'2929.5
2015-Aug-04 01:33N 45°37' W 122°48'5613379.5
2015-Aug-04 01:32N 46°11' W 123°51'39226.7
2015-Aug-04 01:22N 46°05' W 122°56'2076.3
2015-Aug-04 01:06N 46°12' W 123°23'2034.9
2015-Aug-04 00:32N 46°11' W 123°51'39533.2
2015-Aug-04 00:28N 46°05' W 122°56'29398.4
2015-Aug-04 00:24N 45°37' W 122°48'5665.3
2015-Aug-03 23:32N 46°11' W 123°51'561194.6
2015-Aug-03 23:30N 45°37' W 122°48'0 0.0
2015-Aug-03 22:33N 45°37' W 122°48'5622299.1
2015-Aug-03 22:32N 46°11' W 123°51'391563.9
2015-Aug-03 22:31N 46°05' W 122°56'2055.7
2015-Aug-03 22:09N 46°12' W 123°23'4370.7
2015-Aug-03 21:33N 45°37' W 122°48'5618244.7
2015-Aug-03 21:32N 46°11' W 123°51'391599.5
2015-Aug-03 21:31N 46°05' W 122°56'3940.1
2015-Aug-03 20:32N 46°11' W 123°51'561194.6
2015-Aug-03 20:30N 45°37' W 122°48'29366.0
2015-Aug-03 20:25N 46°05' W 122°56'2055.7
2015-Aug-03 20:03N 46°12' W 123°23'2038.3
2015-Aug-03 19:32N 46°11' W 123°51'561194.6
2015-Aug-03 19:30N 45°37' W 122°48'29367.3
2015-Aug-03 19:25N 46°05' W 122°56'3944.8
2015-Aug-03 18:33N 46°11' W 123°51'391497.3
2015-Aug-03 18:31N 46°05' W 122°56'291323.3
2015-Aug-03 18:30N 45°37' W 122°48'5658.5
2015-Aug-03 17:32N 46°11' W 123°51'391599.5
2015-Aug-03 17:31N 46°05' W 122°56'291290.0
2015-Aug-03 17:30N 45°37' W 122°48'43299.1
2015-Aug-03 17:21N 46°12' W 123°23'2024.1
2015-Aug-03 16:32N 46°11' W 123°51'39314.2
2015-Aug-03 16:25N 46°05' W 122°56'291323.3
2015-Aug-03 16:24N 45°37' W 122°48'5665.4
2015-Aug-03 15:33N 46°11' W 123°51'561160.0
2015-Aug-03 15:30N 45°37' W 122°48'29363.4
2015-Aug-03 15:25N 46°05' W 122°56'20123.0
2015-Aug-03 15:15N 46°12' W 123°23'2027.6
2015-Aug-03 14:33N 46°11' W 123°51'39513.7
2015-Aug-03 14:28N 46°05' W 122°56'291433.6
2015-Aug-03 14:27N 45°37' W 122°48'43448.7
2015-Aug-03 14:21N 46°12' W 123°23'2024.2
2015-Aug-03 13:33N 46°11' W 123°51'201099.5
2015-Aug-03 13:31N 46°12' W 123°23'202364.1
2015-Aug-03 13:31N 46°05' W 122°56'291414.0
2015-Aug-03 13:30N 45°37' W 122°48'5658.4
2015-Aug-03 12:32N 46°11' W 123°51'391529.9
2015-Aug-03 12:31N 46°05' W 122°56'20224.1
2015-Aug-03 12:26N 46°12' W 123°23'43238.6
2015-Aug-03 12:15N 45°37' W 122°48'5679.4
2015-Aug-03 11:33N 46°11' W 123°51'391529.9
2015-Aug-03 11:31N 46°05' W 122°56'291340.5
2015-Aug-03 11:30N 45°37' W 122°48'43101.9
2015-Aug-03 11:05N 46°12' W 123°23'4381.0
2015-Aug-03 10:33N 45°37' W 122°48'5615436.8
2015-Aug-03 10:33N 46°11' W 123°51'391513.5
2015-Aug-03 10:31N 46°05' W 122°56'20222.8
2015-Aug-03 10:25N 46°12' W 123°23'2022.2
2015-Aug-03 09:33N 46°11' W 123°51'20287.2
2015-Aug-03 09:28N 46°12' W 123°23'20153.0
2015-Aug-03 09:20N 46°05' W 122°56'3949.0
2015-Aug-03 08:33N 46°11' W 123°51'56378.6
2015-Aug-03 08:24N 45°37' W 122°48'5665.3
2015-Aug-03 07:33N 46°11' W 123°51'5656.0
2015-Aug-03 06:33N 45°37' W 122°48'5618243.6
2015-Aug-03 06:33N 46°11' W 123°51'201066.1
2015-Aug-03 06:31N 46°12' W 123°23'20352.3
2015-Aug-03 06:28N 46°05' W 122°56'2931.1
2015-Aug-03 05:33N 45°37' W 122°48'5622297.7
2015-Aug-03 05:33N 46°11' W 123°51'39511.8
2015-Aug-03 05:28N 46°05' W 122°56'2931.1
2015-Aug-03 04:33N 45°37' W 122°48'5615436.8
2015-Aug-03 04:33N 46°11' W 123°51'39508.1
2015-Aug-03 04:28N 46°05' W 122°56'20488.6
2015-Aug-03 04:25N 46°12' W 123°23'2022.2
2015-Aug-03 03:33N 46°11' W 123°51'39500.9
2015-Aug-03 03:28N 46°05' W 122°56'29411.2
2015-Aug-03 03:24N 45°37' W 122°48'5665.3
2015-Aug-03 02:33N 46°11' W 123°51'391513.5
2015-Aug-03 02:31N 46°05' W 122°56'29409.6
2015-Aug-03 02:27N 45°37' W 122°48'43350.0
2015-Aug-03 02:19N 46°12' W 123°23'2025.0
2015-Aug-03 01:33N 46°11' W 123°51'20283.7
2015-Aug-03 01:28N 46°12' W 123°23'202364.1
2015-Aug-03 01:28N 46°05' W 122°56'2989.8
2015-Aug-03 01:09N 45°37' W 122°48'5692.4
2015-Aug-03 00:33N 46°11' W 123°51'391466.2
2015-Aug-03 00:31N 46°05' W 122°56'20488.6
2015-Aug-03 00:29N 46°12' W 123°23'43333.3
2015-Aug-03 00:21N 45°37' W 122°48'0 0.0
2015-Aug-02 23:33N 45°37' W 122°48'5640138.4
2015-Aug-02 23:33N 46°11' W 123°51'391379.9
2015-Aug-02 23:31N 46°05' W 122°56'20106.4
2015-Aug-02 23:20N 46°12' W 123°23'2025.0
2015-Aug-02 22:33N 46°11' W 123°51'39506.3
2015-Aug-02 22:28N 46°05' W 122°56'2084.4
2015-Aug-02 22:14N 46°12' W 123°23'431607.8
2015-Aug-02 22:12N 45°37' W 122°48'5685.1
2015-Aug-02 21:33N 46°11' W 123°51'391436.2
2015-Aug-02 21:31N 46°05' W 122°56'291517.9
2015-Aug-02 21:30N 45°37' W 122°48'5658.5
2015-Aug-02 20:33N 46°11' W 123°51'201019.8
2015-Aug-02 20:32N 46°12' W 123°23'20345.7
2015-Aug-02 20:28N 46°05' W 122°56'29170.3
2015-Aug-02 20:18N 45°37' W 122°48'5673.9
2015-Aug-02 19:33N 46°11' W 123°51'561209.0
2015-Aug-02 19:30N 45°37' W 122°48'29905.4
2015-Aug-02 19:28N 46°05' W 122°56'3942.5
2015-Aug-02 18:33N 46°11' W 123°51'561180.5
2015-Aug-02 18:30N 45°37' W 122°48'29349.9
2015-Aug-02 18:25N 46°05' W 122°56'20143.1
2015-Aug-02 18:16N 46°12' W 123°23'4359.0
2015-Aug-02 17:33N 45°37' W 122°48'5620067.9
2015-Aug-02 17:33N 46°11' W 123°51'2072.2
2015-Aug-02 17:16N 46°12' W 123°23'20128.6
2015-Aug-02 17:07N 46°05' W 122°56'3968.5
2015-Aug-02 16:33N 46°11' W 123°51'39493.9
2015-Aug-02 16:28N 46°05' W 122°56'291692.1
2015-Aug-02 16:27N 45°37' W 122°48'0 0.0
2015-Aug-02 15:33N 45°37' W 122°48'5611805.4
2015-Aug-02 15:33N 46°11' W 123°51'39500.9
2015-Aug-02 15:28N 46°05' W 122°56'2931.3
2015-Aug-02 14:33N 45°37' W 122°48'5611805.4
2015-Aug-02 14:33N 46°11' W 123°51'39218.9
2015-Aug-02 14:22N 46°05' W 122°56'3947.6
2015-Aug-02 13:33N 46°11' W 123°51'39119.1
2015-Aug-02 13:13N 46°05' W 122°56'2943.0
2015-Aug-02 12:33N 45°37' W 122°48'5615436.9
2015-Aug-02 12:33N 46°11' W 123°51'20278.1
2015-Aug-02 12:29N 46°12' W 123°23'2065.8
2015-Aug-02 12:10N 46°05' W 122°56'3962.9
2015-Aug-02 11:33N 46°11' W 123°51'561201.7
2015-Aug-02 11:30N 45°37' W 122°48'431859.6
2015-Aug-02 11:29N 46°12' W 123°23'202093.9
2015-Aug-02 11:28N 46°05' W 122°56'2931.3
2015-Aug-02 10:33N 45°37' W 122°48'5614334.2
2015-Aug-02 10:33N 46°11' W 123°51'39493.9
2015-Aug-02 10:28N 46°05' W 122°56'3942.5
2015-Aug-02 09:33N 46°11' W 123°51'56578.3
2015-Aug-02 09:27N 45°37' W 122°48'29157.1
2015-Aug-02 09:16N 46°05' W 122°56'2940.0
2015-Aug-02 08:33N 45°37' W 122°48'5622297.7
2015-Aug-02 08:33N 46°11' W 123°51'0 0.0
2015-Aug-02 07:33N 46°11' W 123°51'391340.5
2015-Aug-02 07:31N 46°05' W 122°56'29132.2
2015-Aug-02 07:18N 45°37' W 122°48'0 0.0
2015-Aug-02 06:33N 45°37' W 122°48'5616724.4
2015-Aug-02 06:33N 46°11' W 123°51'39490.4
2015-Aug-02 06:28N 46°05' W 122°56'2931.3
2015-Aug-02 05:33N 45°37' W 122°48'5616724.4
2015-Aug-02 05:33N 46°11' W 123°51'39487.0
2015-Aug-02 05:28N 46°05' W 122°56'2931.3
2015-Aug-02 04:33N 45°37' W 122°48'5614334.2
2015-Aug-02 04:33N 46°11' W 123°51'39170.6
2015-Aug-02 04:19N 46°05' W 122°56'3950.7
2015-Aug-02 03:33N 46°11' W 123°51'39490.4
2015-Aug-02 03:28N 46°05' W 122°56'291810.5
2015-Aug-02 03:27N 45°37' W 122°48'5661.8
2015-Aug-02 02:33N 46°11' W 123°51'561140.3
2015-Aug-02 02:30N 45°37' W 122°48'29214.6
2015-Aug-02 02:22N 46°05' W 122°56'0 0.0
2015-Aug-02 01:33N 46°05' W 122°56'393273.3
2015-Aug-02 01:33N 46°11' W 123°51'56383.7
2015-Aug-02 01:24N 45°37' W 122°48'0 0.0
2015-Aug-02 00:33N 45°37' W 122°48'5618243.5
2015-Aug-02 00:33N 46°11' W 123°51'396397.8
2015-Aug-02 00:32N 46°05' W 122°56'20122.6
2015-Aug-02 00:23N 46°12' W 123°23'2023.6
2015-Aug-01 23:33N 46°11' W 123°51'396397.8
2015-Aug-01 23:32N 46°05' W 122°56'20309.2
2015-Aug-01 23:29N 46°12' W 123°23'43132.3
2015-Aug-01 23:09N 45°37' W 122°48'5692.3
2015-Aug-01 22:33N 46°11' W 123°51'396702.5
2015-Aug-01 22:32N 46°05' W 122°56'201242.1
2015-Aug-01 22:31N 46°12' W 123°23'43114.9
2015-Aug-01 22:09N 45°37' W 122°48'5692.3
2015-Aug-01 21:33N 46°11' W 123°51'396119.5
2015-Aug-01 21:32N 46°05' W 122°56'29707.0
2015-Aug-01 21:30N 45°37' W 122°48'43563.3
2015-Aug-01 21:25N 46°12' W 123°23'4349.1
2015-Aug-01 20:33N 45°37' W 122°48'561023.9
2015-Aug-01 20:30N 46°11' W 123°51'39128.1
2015-Aug-01 20:12N 46°05' W 122°56'3960.7
2015-Aug-01 19:33N 46°11' W 123°51'561201.7
2015-Aug-01 19:30N 45°37' W 122°48'29179.5
2015-Aug-01 19:20N 46°05' W 122°56'3949.2
2015-Aug-01 18:33N 46°11' W 123°51'3996.3
2015-Aug-01 18:08N 46°05' W 122°56'3966.0
2015-Aug-01 17:33N 46°11' W 123°51'394853.5
2015-Aug-01 17:32N 46°05' W 122°56'29742.6
2015-Aug-01 17:30N 45°37' W 122°48'5658.4
2015-Aug-01 16:33N 46°11' W 123°51'20269.6
2015-Aug-01 16:29N 46°12' W 123°23'20586.3
2015-Aug-01 16:26N 46°05' W 122°56'29207.2
2015-Aug-01 16:18N 45°37' W 122°48'0 0.0
2015-Aug-01 15:33N 45°37' W 122°48'5614334.2
2015-Aug-01 15:33N 46°11' W 123°51'396119.6
2015-Aug-01 15:32N 46°05' W 122°56'3939.3
2015-Aug-01 14:33N 46°11' W 123°51'561231.2
2015-Aug-01 14:30N 45°37' W 122°48'29469.1
2015-Aug-01 14:26N 46°05' W 122°56'2932.3
2015-Aug-01 13:33N 45°37' W 122°48'5614335.2
2015-Aug-01 13:33N 46°11' W 123°51'39152.2
2015-Aug-01 13:17N 46°05' W 122°56'3949.3
2015-Aug-01 12:30N 46°11' W 123°51'39364.6
2015-Aug-01 12:23N 46°05' W 122°56'29323.5
2015-Aug-01 12:18N 45°37' W 122°48'0 0.0
2015-Aug-01 11:33N 45°37' W 122°48'5613378.6
2015-Aug-01 11:33N 46°11' W 123°51'395213.0
2015-Aug-01 11:32N 46°05' W 122°56'3939.4
2015-Aug-01 10:33N 46°11' W 123°51'395413.5
2015-Aug-01 10:32N 46°05' W 122°56'29742.4
2015-Aug-01 10:30N 45°37' W 122°48'5658.4
2015-Aug-01 09:33N 46°11' W 123°51'39693.4
2015-Aug-01 09:30N 46°05' W 122°56'29731.9
2015-Aug-01 09:27N 45°37' W 122°48'0 0.0
2015-Aug-01 08:33N 45°37' W 122°48'5611148.8
2015-Aug-01 08:33N 46°11' W 123°51'395413.4
2015-Aug-01 08:32N 46°05' W 122°56'2084.2
2015-Aug-01 08:18N 46°12' W 123°23'2026.0
2015-Aug-01 07:33N 46°11' W 123°51'56383.0
2015-Aug-01 07:24N 45°37' W 122°48'292243.9
2015-Aug-01 07:23N 46°05' W 122°56'3946.5
2015-Aug-01 06:33N 46°11' W 123°51'561208.9
2015-Aug-01 06:30N 45°37' W 122°48'43141.9
2015-Aug-01 06:12N 46°12' W 123°23'202220.8
2015-Aug-01 06:12N 46°05' W 122°56'3960.9
2015-Aug-01 05:33N 46°11' W 123°51'39673.5
2015-Aug-01 05:29N 46°05' W 122°56'3941.5
2015-Aug-01 04:33N 46°11' W 123°51'56384.5
2015-Aug-01 04:24N 45°37' W 122°48'29176.1
2015-Aug-01 04:14N 46°05' W 122°56'3956.5
2015-Aug-01 03:33N 46°11' W 123°51'56383.7
2015-Aug-01 03:24N 45°37' W 122°48'29254.8
2015-Aug-01 03:18N 46°05' W 122°56'3952.7
2015-Aug-01 02:33N 46°11' W 123°51'395630.1
2015-Aug-01 02:33N 46°05' W 122°56'2958.7
2015-Aug-01 02:03N 45°37' W 122°48'56110.8
2015-Aug-01 01:33N 46°11' W 123°51'39357.2
2015-Aug-01 01:26N 46°05' W 122°56'3943.8
2015-Aug-01 00:33N 46°11' W 123°51'394691.7
2015-Aug-01 00:32N 46°05' W 122°56'29781.8
2015-Aug-01 00:30N 45°37' W 122°48'43105.9
2015-Aug-01 00:06N 46°12' W 123°23'2035.5
2015-Jul-31 23:33N 46°11' W 123°51'39359.1
2015-Jul-31 23:26N 46°05' W 122°56'3943.9
2015-Jul-31 22:33N 46°11' W 123°51'394691.6
2015-Jul-31 22:32N 46°05' W 122°56'20488.6
2015-Jul-31 22:30N 46°12' W 123°23'43946.9
2015-Jul-31 22:27N 45°37' W 122°48'5661.7
2015-Jul-31 21:33N 46°11' W 123°51'2014072.8
2015-Jul-31 21:33N 46°12' W 123°23'202442.9
2015-Jul-31 21:32N 46°05' W 122°56'2929.1
2015-Jul-31 20:33N 45°37' W 122°48'5615437.9
2015-Jul-31 20:33N 46°11' W 123°51'20380.3
2015-Jul-31 20:30N 46°12' W 123°23'20349.0
2015-Jul-31 20:26N 46°05' W 122°56'3943.9
2015-Jul-31 19:33N 46°11' W 123°51'394398.5
2015-Jul-31 19:32N 46°05' W 122°56'29332.9
2015-Jul-31 19:27N 45°37' W 122°48'5661.7
2015-Jul-31 18:33N 46°11' W 123°51'393804.1
2015-Jul-31 18:32N 46°05' W 122°56'29331.9
2015-Jul-31 18:27N 45°37' W 122°48'5661.7
2015-Jul-31 17:33N 46°11' W 123°51'56581.7
2015-Jul-31 17:27N 45°37' W 122°48'5661.7
2015-Jul-31 16:33N 46°11' W 123°51'394021.5
2015-Jul-31 16:32N 46°05' W 122°56'29211.0
2015-Jul-31 16:24N 45°37' W 122°48'5665.3
2015-Jul-31 15:33N 46°11' W 123°51'561208.9
2015-Jul-31 15:30N 45°37' W 122°48'292064.0
2015-Jul-31 15:30N 46°05' W 122°56'3941.6
2015-Jul-31 14:33N 46°11' W 123°51'20193.8
2015-Jul-31 14:27N 46°12' W 123°23'202290.4
2015-Jul-31 14:26N 46°05' W 122°56'29335.1
2015-Jul-31 14:21N 45°37' W 122°48'5669.3
2015-Jul-31 13:33N 46°11' W 123°51'393909.8
2015-Jul-31 13:32N 46°05' W 122°56'29812.8
2015-Jul-31 13:30N 45°37' W 122°48'5658.4
2015-Jul-31 12:33N 46°11' W 123°51'56581.6
2015-Jul-31 12:27N 45°37' W 122°48'29251.7
2015-Jul-31 12:20N 46°05' W 122°56'3949.6
2015-Jul-31 11:33N 46°11' W 123°51'393273.3
2015-Jul-31 11:32N 46°05' W 122°56'20222.8
2015-Jul-31 11:27N 46°12' W 123°23'43989.4
2015-Jul-31 11:24N 45°37' W 122°48'5665.2
2015-Jul-31 10:33N 46°11' W 123°51'2014072.8
2015-Jul-31 10:33N 46°12' W 123°23'43453.9
2015-Jul-31 10:27N 45°37' W 122°48'291947.1
2015-Jul-31 10:26N 46°05' W 122°56'3944.0
2015-Jul-31 09:33N 46°11' W 123°51'393609.0
2015-Jul-31 09:32N 46°05' W 122°56'29213.2
2015-Jul-31 09:24N 45°37' W 122°48'43267.0
2015-Jul-31 09:15N 46°12' W 123°23'2028.2
2015-Jul-31 08:33N 46°11' W 123°51'39352.8
2015-Jul-31 08:26N 46°05' W 122°56'29212.0
2015-Jul-31 08:18N 45°37' W 122°48'5674.1
2015-Jul-31 07:33N 46°11' W 123°51'393059.8
2015-Jul-31 07:32N 46°05' W 122°56'29122.3
2015-Jul-31 07:18N 45°37' W 122°48'43268.4
2015-Jul-31 07:09N 46°12' W 123°23'4372.7
2015-Jul-31 06:33N 45°37' W 122°48'5615437.9
2015-Jul-31 06:33N 46°11' W 123°51'39241.8
2015-Jul-31 06:24N 46°05' W 122°56'2934.3
2015-Jul-31 05:33N 45°37' W 122°48'5615436.8
2015-Jul-31 05:33N 46°11' W 123°51'393351.2
2015-Jul-31 05:32N 46°05' W 122°56'3939.5
2015-Jul-31 04:33N 46°11' W 123°51'393518.8
2015-Jul-31 04:32N 46°05' W 122°56'29213.7
2015-Jul-31 04:24N 45°37' W 122°48'5665.2
2015-Jul-31 03:33N 46°11' W 123°51'393351.2
2015-Jul-31 03:32N 46°05' W 122°56'2974.7
2015-Jul-31 03:09N 45°37' W 122°48'5692.2
2015-Jul-31 02:33N 46°11' W 123°51'393433.0
2015-Jul-31 02:32N 46°05' W 122°56'29839.0
2015-Jul-31 02:30N 45°37' W 122°48'5658.4
2015-Jul-31 01:33N 46°11' W 123°51'393273.3
2015-Jul-31 01:32N 46°05' W 122°56'29214.5
2015-Jul-31 01:24N 45°37' W 122°48'5665.3
2015-Jul-31 00:33N 46°11' W 123°51'393127.8
2015-Jul-31 00:32N 46°05' W 122°56'2974.8
2015-Jul-31 00:09N 45°37' W 122°48'0 0.0
2015-Jul-30 23:33N 45°37' W 122°48'5622297.7
2015-Jul-30 23:33N 46°11' W 123°51'39345.0
2015-Jul-30 23:27N 46°05' W 122°56'3944.1
2015-Jul-30 22:33N 46°11' W 123°51'561223.7
2015-Jul-30 22:31N 45°37' W 122°48'29171.1
2015-Jul-30 22:20N 46°05' W 122°56'2936.6
2015-Jul-30 21:34N 45°37' W 122°48'5616724.4
2015-Jul-30 21:33N 46°11' W 123°51'39148.8
2015-Jul-30 21:18N 46°05' W 122°56'3953.0
2015-Jul-30 20:33N 46°11' W 123°51'393059.8
2015-Jul-30 20:32N 46°05' W 122°56'29156.6
2015-Jul-30 20:22N 45°37' W 122°48'5669.4
2015-Jul-30 19:33N 46°11' W 123°51'561187.4
2015-Jul-30 19:30N 45°37' W 122°48'0 0.0
2015-Jul-30 18:34N 45°37' W 122°48'5616723.2
2015-Jul-30 18:33N 46°11' W 123°51'39107.4
2015-Jul-30 18:11N 46°05' W 122°56'3961.4
2015-Jul-30 17:33N 46°11' W 123°51'201599.2
2015-Jul-30 17:33N 46°12' W 123°23'20135.5
2015-Jul-30 17:24N 46°05' W 122°56'29158.3
2015-Jul-30 17:13N 45°37' W 122°48'5685.1
2015-Jul-30 16:33N 46°11' W 123°51'561187.5
2015-Jul-30 16:31N 45°37' W 122°48'291664.8
2015-Jul-30 16:29N 46°05' W 122°56'20101.9
2015-Jul-30 16:18N 46°12' W 123°23'2027.1
2015-Jul-30 15:32N 46°05' W 122°56'29905.2
2015-Jul-30 15:31N 45°37' W 122°48'5616723.2
2015-Jul-30 15:30N 46°11' W 123°51'0 0.0
2015-Jul-30 14:33N 46°11' W 123°51'39614.6
2015-Jul-30 14:30N 46°05' W 122°56'3941.8
2015-Jul-30 13:33N 46°11' W 123°51'392469.3
2015-Jul-30 13:32N 46°05' W 122°56'20414.0
2015-Jul-30 13:30N 46°12' W 123°23'431353.9
2015-Jul-30 13:28N 45°37' W 122°48'2931.2
2015-Jul-30 12:32N 46°05' W 122°56'391117.1
2015-Jul-30 12:30N 46°11' W 123°51'561201.7
2015-Jul-30 12:28N 45°37' W 122°48'43197.6
2015-Jul-30 12:15N 46°12' W 123°23'2028.5
2015-Jul-30 11:33N 46°11' W 123°51'20172.5
2015-Jul-30 11:27N 46°12' W 123°23'2014657.1
2015-Jul-30 11:26N 46°05' W 122°56'29101.8
2015-Jul-30 11:10N 45°37' W 122°48'5692.3
2015-Jul-30 10:33N 46°11' W 123°51'392706.8
2015-Jul-30 10:32N 46°05' W 122°56'29921.4
2015-Jul-30 10:31N 45°37' W 122°48'432411.4
2015-Jul-30 10:30N 46°12' W 123°23'2020.9
2015-Jul-30 09:33N 46°11' W 123°51'201379.7
2015-Jul-30 09:33N 46°12' W 123°23'431378.1
2015-Jul-30 09:31N 45°37' W 122°48'29169.2
2015-Jul-30 09:20N 46°05' W 122°56'3949.8
2015-Jul-30 08:33N 46°11' W 123°51'392706.7
2015-Jul-30 08:32N 46°05' W 122°56'29929.9
2015-Jul-30 08:31N 45°37' W 122°48'43624.9
2015-Jul-30 08:26N 46°12' W 123°23'2022.1
2015-Jul-30 07:33N 46°11' W 123°51'392655.6
2015-Jul-30 07:32N 46°05' W 122°56'29929.9
2015-Jul-30 07:31N 45°37' W 122°48'43196.1
2015-Jul-30 07:18N 46°12' W 123°23'2026.6
2015-Jul-30 06:33N 46°11' W 123°51'20171.2
2015-Jul-30 06:27N 46°12' W 123°23'2018321.4
2015-Jul-30 06:26N 46°05' W 122°56'3941.8
2015-Jul-30 05:30N 46°11' W 123°51'561223.7
2015-Jul-30 05:28N 45°37' W 122°48'291453.5
2015-Jul-30 05:26N 46°05' W 122°56'3944.2
2015-Jul-30 04:33N 46°11' W 123°51'561216.2
2015-Jul-30 04:31N 45°37' W 122°48'29239.4
2015-Jul-30 04:23N 46°05' W 122°56'3946.8
2015-Jul-30 03:33N 46°11' W 123°51'561238.8
2015-Jul-30 03:31N 45°37' W 122°48'29409.5
2015-Jul-30 03:26N 46°05' W 122°56'3944.2
2015-Jul-30 02:33N 46°11' W 123°51'392426.8
2015-Jul-30 02:32N 46°05' W 122°56'29220.1
2015-Jul-30 02:25N 45°37' W 122°48'5665.2
2015-Jul-30 01:33N 46°11' W 123°51'561223.7
2015-Jul-30 01:31N 45°37' W 122°48'291495.6
2015-Jul-30 01:30N 46°05' W 122°56'2929.2
2015-Jul-30 00:31N 45°37' W 122°48'5615436.8
2015-Jul-30 00:30N 46°11' W 123°51'39337.5
2015-Jul-30 00:24N 46°05' W 122°56'3946.8
2015-Jul-29 23:33N 46°11' W 123°51'392469.3
2015-Jul-29 23:32N 46°05' W 122°56'29364.7
2015-Jul-29 23:28N 45°37' W 122°48'5661.6
2015-Jul-29 22:33N 46°11' W 123°51'39338.3
2015-Jul-29 22:26N 46°05' W 122°56'29124.8
2015-Jul-29 22:13N 45°37' W 122°48'5685.3
2015-Jul-29 21:33N 46°11' W 123°51'56588.5
2015-Jul-29 21:28N 45°37' W 122°48'29403.2
2015-Jul-29 21:24N 46°05' W 122°56'3946.9
2015-Jul-29 20:33N 46°11' W 123°51'561231.2
2015-Jul-29 20:31N 45°37' W 122°48'291517.9
2015-Jul-29 20:30N 46°05' W 122°56'3941.8
2015-Jul-29 19:33N 46°11' W 123°51'392307.4
2015-Jul-29 19:32N 46°05' W 122°56'29222.5
2015-Jul-29 19:25N 45°37' W 122°48'5665.2
2015-Jul-29 18:33N 46°11' W 123°51'561238.8
2015-Jul-29 18:31N 45°37' W 122°48'29167.3
2015-Jul-29 18:20N 46°05' W 122°56'3949.9
2015-Jul-29 17:33N 46°11' W 123°51'392706.8
2015-Jul-29 17:33N 46°05' W 122°56'29102.1
2015-Jul-29 17:16N 45°37' W 122°48'432057.8
2015-Jul-29 17:14N 46°12' W 123°23'2028.6
2015-Jul-29 16:33N 46°11' W 123°51'39334.3
2015-Jul-29 16:26N 46°05' W 122°56'291012.0
2015-Jul-29 16:25N 45°37' W 122°48'43219.2
2015-Jul-29 16:13N 46°12' W 123°23'2029.7
2015-Jul-29 15:34N 46°11' W 123°51'39576.9
2015-Jul-29 15:29N 46°05' W 122°56'291001.9
2015-Jul-29 15:28N 45°37' W 122°48'5661.7
2015-Jul-29 14:33N 46°11' W 123°51'392307.4
2015-Jul-29 14:32N 46°05' W 122°56'29222.9
2015-Jul-29 14:25N 45°37' W 122°48'5665.3
2015-Jul-29 13:34N 46°11' W 123°51'39332.7
2015-Jul-29 13:26N 46°05' W 122°56'29160.8
2015-Jul-29 13:16N 45°37' W 122°48'0 0.0
2015-Jul-29 12:31N 45°37' W 122°48'569555.5
2015-Jul-29 12:31N 46°11' W 123°51'392307.4
2015-Jul-29 12:29N 46°05' W 122°56'2929.3
2015-Jul-29 11:31N 45°37' W 122°48'5613378.6
2015-Jul-29 11:31N 46°11' W 123°51'39579.2
2015-Jul-29 11:26N 46°05' W 122°56'0 0.0
2015-Jul-29 10:32N 46°05' W 122°56'391234.7
2015-Jul-29 10:31N 46°11' W 123°51'56581.7
2015-Jul-29 10:25N 45°37' W 122°48'43443.5
2015-Jul-29 10:19N 46°12' W 123°23'2026.3
2015-Jul-29 09:33N 46°05' W 122°56'20779.6
2015-Jul-29 09:31N 46°12' W 123°23'4319291.4
2015-Jul-29 09:31N 45°37' W 122°48'5612542.4
2015-Jul-29 09:31N 46°11' W 123°51'0 0.0
2015-Jul-29 08:34N 46°11' W 123°51'392165.4
2015-Jul-29 08:32N 46°05' W 122°56'20163.6
2015-Jul-29 08:25N 46°12' W 123°23'4315434.9
2015-Jul-29 08:25N 45°37' W 122°48'0 0.0
2015-Jul-29 07:31N 45°37' W 122°48'291258.8
2015-Jul-29 07:29N 46°05' W 122°56'391268.0
2015-Jul-29 07:28N 46°11' W 123°51'3942.5
2015-Jul-29 06:32N 46°05' W 122°56'20852.2
2015-Jul-29 06:31N 46°12' W 123°23'4312862.4
2015-Jul-29 06:31N 45°37' W 122°48'5616723.3
2015-Jul-29 06:31N 46°11' W 123°51'3940.3
2015-Jul-29 05:32N 46°05' W 122°56'20852.2
2015-Jul-29 05:31N 46°12' W 123°23'4317148.0
2015-Jul-29 05:31N 45°37' W 122°48'5612542.4
2015-Jul-29 05:31N 46°11' W 123°51'3940.3
2015-Jul-29 04:32N 46°05' W 122°56'29375.3
2015-Jul-29 04:28N 45°37' W 122°48'5614334.2
2015-Jul-29 04:28N 46°11' W 123°51'3942.5
2015-Jul-29 03:32N 46°05' W 122°56'391256.7
2015-Jul-29 03:31N 46°11' W 123°51'561223.7
2015-Jul-29 03:28N 45°37' W 122°48'5658.4
2015-Jul-29 02:31N 46°11' W 123°51'392100.8
2015-Jul-29 02:30N 46°05' W 122°56'0 0.0
2015-Jul-29 01:32N 46°05' W 122°56'391291.3
2015-Jul-29 01:31N 46°11' W 123°51'561194.6
2015-Jul-29 01:28N 45°37' W 122°48'5658.4
2015-Jul-29 00:31N 46°11' W 123°51'561216.3
2015-Jul-29 00:28N 45°37' W 122°48'291214.3
2015-Jul-29 00:26N 46°05' W 122°56'0 0.0
2015-Jul-28 23:32N 46°05' W 122°56'391291.3
2015-Jul-28 23:31N 46°11' W 123°51'3940.3
2015-Jul-28 22:32N 46°05' W 122°56'291075.2
2015-Jul-28 22:31N 45°37' W 122°48'5612543.3
2015-Jul-28 22:31N 46°11' W 123°51'2 2.2
2015-Jul-28 21:33N 46°12' W 123°48'37572.5
2015-Jul-28 21:29N 46°05' W 122°56'291122.0
2015-Jul-28 21:28N 45°37' W 122°48'4852.0
2015-Jul-28 20:33N 46°16' W 123°28'25117.1
2015-Jul-28 20:20N 46°05' W 122°56'1722.2
2015-Jul-28 19:33N 46°09' W 123°20'171535.5
2015-Jul-28 19:32N 46°05' W 122°56'291134.3
2015-Jul-28 19:31N 45°37' W 122°48'2929.0
2015-Jul-28 18:31N 46°05' W 122°56'298656.2
2015-Jul-28 18:31N 45°37' W 122°48'43286.9
2015-Jul-28 18:22N 46°12' W 123°23'20814.3
2015-Jul-28 18:20N 46°05' W 122°56'0 0.3
2015-Jul-28 17:30N 46°05' W 122°56'025.0
2015-Jul-28 17:29N 46°05' W 122°56'2976.3
2015-Jul-28 17:07N 45°37' W 122°48'2238.9
2015-Jul-28 16:33N 45°59' W 122°50'7681.5
2015-Jul-28 16:32N 46°05' W 122°56'291146.9
2015-Jul-28 16:31N 45°37' W 122°48'3 3.2
2015-Jul-28 15:33N 45°39' W 122°45'272478.6
2015-Jul-28 15:32N 46°05' W 122°56'29382.2
2015-Jul-28 15:28N 45°37' W 122°48'5 5.0
2015-Jul-28 14:31N 45°34' W 122°43'4710039.0
2015-Jul-28 14:31N 46°12' W 123°23'4377174.7
2015-Jul-28 14:31N 45°37' W 122°48'29385.1
2015-Jul-28 14:27N 46°05' W 122°56'3234.0
2015-Jul-28 13:29N 45°34' W 122°43'5234.8
2015-Jul-28 13:28N 45°37' W 122°48'291134.3
2015-Jul-28 13:27N 46°05' W 122°56'2929.4
2015-Jul-28 12:28N 45°37' W 122°48'559.8
2015-Jul-28 12:23N 45°34' W 122°43'32704.3
2015-Jul-28 12:20N 46°05' W 122°56'0 0.0
2015-Jul-28 11:32N 46°05' W 122°56'291228.8
2015-Jul-28 11:31N 45°37' W 122°48'5157.3
2015-Jul-28 11:29N 45°34' W 122°43'3234.3
2015-Jul-28 10:32N 46°05' W 122°56'29231.9
2015-Jul-28 10:25N 45°37' W 122°48'5157.4
2015-Jul-28 10:23N 45°34' W 122°43'3238.4
2015-Jul-28 09:32N 46°05' W 122°56'291186.2
2015-Jul-28 09:31N 45°37' W 122°48'5161.7
2015-Jul-28 09:29N 45°34' W 122°43'5 4.9
2015-Jul-28 08:31N 45°37' W 122°48'5160.2
2015-Jul-28 08:29N 45°34' W 122°43'32131.8
2015-Jul-28 08:14N 46°05' W 122°56'0 0.0
2015-Jul-28 07:32N 46°05' W 122°56'291200.2
2015-Jul-28 07:31N 45°37' W 122°48'520.8
2015-Jul-28 07:17N 45°34' W 122°43'3243.5
2015-Jul-28 06:32N 46°05' W 122°56'291200.2
2015-Jul-28 06:31N 45°37' W 122°48'536.7
2015-Jul-28 06:23N 45°34' W 122°43'3238.4
2015-Jul-28 05:32N 46°05' W 122°56'29128.0
2015-Jul-28 05:19N 45°37' W 122°48'520.8
2015-Jul-28 05:05N 45°34' W 122°43'3259.3
2015-Jul-28 04:32N 46°05' W 122°56'3210628.2
2015-Jul-28 04:32N 45°34' W 122°43'5238.1
2015-Jul-28 04:31N 45°37' W 122°48'2927.9
2015-Jul-28 03:30N 46°05' W 122°56'32602.6
2015-Jul-28 03:26N 45°34' W 122°43'567.5
2015-Jul-28 03:22N 45°37' W 122°48'2934.7
2015-Jul-28 02:32N 46°05' W 122°56'3212990.0
2015-Jul-28 02:32N 45°34' W 122°43'539.4
2015-Jul-28 02:25N 45°37' W 122°48'2932.7
2015-Jul-28 01:33N 46°05' W 122°56'291186.2
2015-Jul-28 01:31N 45°37' W 122°48'5164.9
2015-Jul-28 01:29N 45°34' W 122°43'3234.3
2015-Jul-28 00:32N 46°05' W 122°56'3214613.8
2015-Jul-28 00:32N 45°34' W 122°43'539.3
2015-Jul-28 00:25N 45°37' W 122°48'8 8.9
2015-Jul-27 23:33N 45°45' W 122°46'221432.7
2015-Jul-27 23:32N 46°05' W 122°56'291306.6
2015-Jul-27 23:31N 45°37' W 122°48'0 0.0
2015-Jul-27 22:28N 45°37' W 122°48'152135.5
2015-Jul-27 22:28N 45°52' W 122°48'1465.5
2015-Jul-27 22:14N 46°05' W 122°56'0 0.0
2015-Jul-27 21:32N 46°05' W 122°56'291306.6
2015-Jul-27 21:31N 45°37' W 122°48'152224.5
2015-Jul-27 21:31N 45°52' W 122°48'1414.9
2015-Jul-27 20:33N 46°05' W 122°56'291243.6
2015-Jul-27 20:31N 45°37' W 122°48'15263.0
2015-Jul-27 20:28N 45°52' W 122°48'1413.5
2015-Jul-27 19:24N 46°05' W 122°56'29234.0
2015-Jul-27 19:16N 45°37' W 122°48'43280.6
2015-Jul-27 19:07N 46°12' W 123°23'4371.8
2015-Jul-27 18:31N 45°37' W 122°48'4319293.7
2015-Jul-27 18:31N 46°12' W 123°23'329605.0
2015-Jul-27 18:31N 45°52' W 122°48'1438.9
2015-Jul-27 18:09N 46°05' W 122°56'2939.7
2015-Jul-27 17:25N 45°37' W 122°48'152135.5
2015-Jul-27 17:25N 45°52' W 122°48'14203.4
2015-Jul-27 17:21N 46°05' W 122°56'2934.9
2015-Jul-27 16:31N 45°37' W 122°48'4319293.7
2015-Jul-27 16:31N 46°12' W 123°23'32585.0
2015-Jul-27 16:28N 45°52' W 122°48'14201.7
2015-Jul-27 16:23N 46°05' W 122°56'0 0.0
2015-Jul-27 15:32N 46°05' W 122°56'291323.1
2015-Jul-27 15:31N 45°37' W 122°48'15262.9
2015-Jul-27 15:28N 45°52' W 122°48'1515.7
2015-Jul-27 14:31N 45°37' W 122°48'291002.1
2015-Jul-27 14:29N 46°05' W 122°56'20274.5
2015-Jul-27 14:25N 46°12' W 123°23'329605.0
2015-Jul-27 14:25N 45°52' W 122°48'1416.6
2015-Jul-27 13:32N 46°05' W 122°56'14515.5
2015-Jul-27 13:31N 45°52' W 122°48'1576.9
2015-Jul-27 13:19N 45°37' W 122°48'0 0.0
2015-Jul-27 12:31N 45°37' W 122°48'15139.4
2015-Jul-27 12:25N 45°52' W 122°48'14627.3
2015-Jul-27 12:23N 46°05' W 122°56'0 0.0
2015-Jul-27 11:30N 46°05' W 122°56'291358.2
2015-Jul-27 11:28N 45°37' W 122°48'152224.5
2015-Jul-27 11:28N 45°52' W 122°48'1515.7
2015-Jul-27 10:31N 45°37' W 122°48'152053.4
2015-Jul-27 10:31N 45°52' W 122°48'14642.5
2015-Jul-27 10:30N 46°05' W 122°56'0 0.0
2015-Jul-27 09:32N 46°05' W 122°56'291394.9
2015-Jul-27 09:31N 45°37' W 122°48'4312863.9
2015-Jul-27 09:31N 46°12' W 123°23'32310.7
2015-Jul-27 09:25N 45°52' W 122°48'1416.6
2015-Jul-27 08:32N 46°05' W 122°56'29406.4
2015-Jul-27 08:28N 45°37' W 122°48'15263.0
2015-Jul-27 08:25N 45°52' W 122°48'1416.6
2015-Jul-27 07:32N 46°05' W 122°56'14536.7
2015-Jul-27 07:31N 45°52' W 122°48'15159.4
2015-Jul-27 07:25N 45°37' W 122°48'2932.6
2015-Jul-27 06:32N 46°05' W 122°56'14536.7
2015-Jul-27 06:31N 45°52' W 122°48'15346.7
2015-Jul-27 06:28N 45°37' W 122°48'43120.7
2015-Jul-27 06:07N 46°12' W 123°23'2035.4
2015-Jul-27 05:32N 46°05' W 122°56'291433.3
2015-Jul-27 05:31N 45°37' W 122°48'15139.4
2015-Jul-27 05:25N 45°52' W 122°48'32329.3
2015-Jul-27 05:19N 46°12' W 123°23'4353.8
2015-Jul-27 04:31N 45°37' W 122°48'29982.8
2015-Jul-27 04:30N 46°05' W 122°56'14536.5
2015-Jul-27 04:28N 45°52' W 122°48'1415.7
2015-Jul-27 03:32N 46°05' W 122°56'291474.6
2015-Jul-27 03:31N 45°37' W 122°48'152135.5
2015-Jul-27 03:31N 45°52' W 122°48'32326.5
2015-Jul-27 03:25N 46°12' W 123°23'4347.9
2015-Jul-27 02:31N 45°37' W 122°48'15261.6
2015-Jul-27 02:28N 45°52' W 122°48'14612.5
2015-Jul-27 02:26N 46°05' W 122°56'0 0.0
2015-Jul-27 01:33N 46°05' W 122°56'291453.5
2015-Jul-27 01:31N 45°37' W 122°48'15138.3
2015-Jul-27 01:25N 45°52' W 122°48'1416.5
2015-Jul-27 00:32N 46°05' W 122°56'29414.5
2015-Jul-27 00:28N 45°37' W 122°48'152225.4
2015-Jul-27 00:28N 45°52' W 122°48'1415.6
2015-Jul-26 23:32N 46°05' W 122°56'291540.6
2015-Jul-26 23:31N 45°37' W 122°48'15261.7
2015-Jul-26 23:28N 45°52' W 122°48'1415.6
2015-Jul-26 22:32N 46°05' W 122°56'291474.6
2015-Jul-26 22:31N 45°37' W 122°48'15264.3
2015-Jul-26 22:28N 45°52' W 122°48'3291.5
2015-Jul-26 22:07N 46°12' W 123°23'2035.4
2015-Jul-26 21:32N 46°05' W 122°56'29414.5
2015-Jul-26 21:28N 45°37' W 122°48'152542.2
2015-Jul-26 21:28N 45°52' W 122°48'1415.6
2015-Jul-26 20:32N 46°05' W 122°56'14559.8
2015-Jul-26 20:31N 45°52' W 122°48'15340.0
2015-Jul-26 20:28N 45°37' W 122°48'0 0.0
2015-Jul-26 19:31N 45°37' W 122°48'29921.6
2015-Jul-26 19:29N 46°05' W 122°56'14192.8
2015-Jul-26 19:25N 45°52' W 122°48'1416.5
2015-Jul-26 18:32N 46°05' W 122°56'291563.9
2015-Jul-26 18:31N 45°37' W 122°48'152322.1
2015-Jul-26 18:31N 45°52' W 122°48'32320.1
2015-Jul-26 18:25N 46°12' W 123°23'2023.3
2015-Jul-26 17:32N 46°05' W 122°56'291588.0
2015-Jul-26 17:31N 45°37' W 122°48'152321.2
2015-Jul-26 17:31N 45°52' W 122°48'1414.8
2015-Jul-26 16:32N 46°05' W 122°56'14598.2
2015-Jul-26 16:31N 45°52' W 122°48'15333.7
2015-Jul-26 16:28N 45°37' W 122°48'0 0.0
2015-Jul-26 15:31N 45°37' W 122°48'152224.5
2015-Jul-26 15:31N 45°52' W 122°48'14115.4
2015-Jul-26 15:23N 46°05' W 122°56'20273.5
2015-Jul-26 15:19N 46°12' W 123°23'4354.1
2015-Jul-26 14:31N 45°37' W 122°48'15257.9
2015-Jul-26 14:28N 45°52' W 122°48'14598.4
2015-Jul-26 14:27N 46°05' W 122°56'0 0.0
2015-Jul-26 13:33N 46°05' W 122°56'29417.9
2015-Jul-26 13:28N 45°37' W 122°48'15265.6
2015-Jul-26 13:25N 45°52' W 122°48'32159.4
2015-Jul-26 13:13N 46°12' W 123°23'4361.9
2015-Jul-26 12:31N 45°37' W 122°48'29346.4
2015-Jul-26 12:26N 46°05' W 122°56'20814.3
2015-Jul-26 12:25N 46°12' W 123°23'32651.2
2015-Jul-26 12:22N 45°52' W 122°48'1517.6
2015-Jul-26 11:31N 45°37' W 122°48'152321.2
2015-Jul-26 11:31N 45°52' W 122°48'3257629.9
2015-Jul-26 11:31N 46°12' W 123°23'20779.6
2015-Jul-26 11:29N 46°05' W 122°56'0 0.0
2015-Jul-26 10:32N 46°05' W 122°56'20163.2
2015-Jul-26 10:25N 46°12' W 123°23'43223.7
2015-Jul-26 10:13N 45°37' W 122°48'2942.0
2015-Jul-26 09:32N 46°05' W 122°56'20814.3
2015-Jul-26 09:31N 46°12' W 123°23'431035.8
2015-Jul-26 09:29N 45°37' W 122°48'151906.7
2015-Jul-26 09:28N 45°52' W 122°48'0 0.0
2015-Jul-26 08:28N 45°52' W 122°48'14114.9
2015-Jul-26 08:21N 46°05' W 122°56'20862.2
2015-Jul-26 08:19N 46°12' W 123°23'431002.3
2015-Jul-26 08:17N 45°37' W 122°48'0 0.0
2015-Jul-26 07:31N 45°37' W 122°48'435716.6
2015-Jul-26 07:31N 46°12' W 123°23'20269.4
2015-Jul-26 07:27N 46°05' W 122°56'14627.3
2015-Jul-26 07:25N 45°52' W 122°48'0 0.0
2015-Jul-26 06:31N 45°52' W 122°48'3212805.1
2015-Jul-26 06:31N 46°12' W 123°23'431035.9
2015-Jul-26 06:29N 45°37' W 122°48'29853.1
2015-Jul-26 06:26N 46°05' W 122°56'  

Dump ship's entire track history